<?xml version="1.0" encoding="UTF-8" standalone="no" ?>
<gpx xmlns="http://www.topografix.com/GPX/1/1" xmlns:xsi="http://www.w3.org/2001/XMLSchema-instance" xsi:schemaLocation="http://www.topografix.com/GPX/1/1 http://www.topografix.com/GPX/1/1/gpx.xsd" version="1.1" creator="VisuGPX - https://www.visugpx.com">
  <metadata>
    <name>VTT consegudes</name>
    <desc><![CDATA[descente assez technique avec gros cailloux roulants. Visiblement peu fréquenté, ronces . Claire & Serge]]></desc>
  </metadata>
  <trk>
    <name><![CDATA[2017-10-29 12:40]]></name>
    <desc><![CDATA[<h1>OruxMaps</h1><br /><hr align="center" width="480" style="height: 2px; width: 517px"/><h2>Nom: 2017-10-29 12:40</h2><br /><p>Temps de départ: 10/29/2017 12:40</p><p>Temps d'arrivée: 10/29/2017 15:47</p><p>Distance: 19,5km (03:07)</p><p>Temps déplacement: 02:09</p><p>Vitesse moyenne: 6,3km/h</p><p>Vitesse moyenne: 9,1km/h</p><p>Vitess Max.: 31,7km/h</p><p>Altitude minimale: 446m</p><p>Altitude maximale: 909m</p><p>Vitesse d'élévation: 352,4m/h</p><p>Vitesse de descente: -507,7m/h</p><p>Gain Altitude: 558m</p><p>Perte Altitude: -566m</p><p>Temps d'élévation: 01:35</p><p>Temps de descente: 01:07</p><hr align="center" width="480" style="height: 2px; width: 517px"/>]]></desc>
    <trkseg>
      <trkpt lat="43.84318" lon="7.0475">
        <ele>620.85</ele>
        <time>2017-10-29T11:40:10Z</time>
      </trkpt>
      <trkpt lat="43.84307" lon="7.04773">
        <ele>621.59</ele>
        <time>2017-10-29T11:41:26Z</time>
      </trkpt>
      <trkpt lat="43.84297" lon="7.04801">
        <ele>624.13</ele>
        <time>2017-10-29T11:41:30Z</time>
      </trkpt>
      <trkpt lat="43.84289" lon="7.04827">
        <ele>623.34</ele>
        <time>2017-10-29T11:41:33Z</time>
      </trkpt>
      <trkpt lat="43.84282" lon="7.04855">
        <ele>622</ele>
        <time>2017-10-29T11:41:36Z</time>
      </trkpt>
      <trkpt lat="43.84275" lon="7.04884">
        <ele>619.83</ele>
        <time>2017-10-29T11:41:39Z</time>
      </trkpt>
      <trkpt lat="43.84256" lon="7.04905">
        <ele>617.41</ele>
        <time>2017-10-29T11:41:42Z</time>
      </trkpt>
      <trkpt lat="43.84231" lon="7.04913">
        <ele>615</ele>
        <time>2017-10-29T11:41:45Z</time>
      </trkpt>
      <trkpt lat="43.84208" lon="7.04918">
        <ele>614.78</ele>
        <time>2017-10-29T11:41:48Z</time>
      </trkpt>
      <trkpt lat="43.84185" lon="7.04926">
        <ele>614.52</ele>
        <time>2017-10-29T11:41:52Z</time>
      </trkpt>
      <trkpt lat="43.84163" lon="7.04936">
        <ele>614.66</ele>
        <time>2017-10-29T11:41:56Z</time>
      </trkpt>
      <trkpt lat="43.84146" lon="7.04953">
        <ele>613.1</ele>
        <time>2017-10-29T11:42:00Z</time>
      </trkpt>
      <trkpt lat="43.84126" lon="7.04962">
        <ele>613.73</ele>
        <time>2017-10-29T11:42:04Z</time>
      </trkpt>
      <trkpt lat="43.84103" lon="7.0496">
        <ele>614.12</ele>
        <time>2017-10-29T11:42:08Z</time>
      </trkpt>
      <trkpt lat="43.84085" lon="7.04954">
        <ele>613.23</ele>
        <time>2017-10-29T11:42:12Z</time>
      </trkpt>
      <trkpt lat="43.84067" lon="7.04962">
        <ele>611.01</ele>
        <time>2017-10-29T11:42:16Z</time>
      </trkpt>
      <trkpt lat="43.84057" lon="7.04987">
        <ele>609.8</ele>
        <time>2017-10-29T11:42:20Z</time>
      </trkpt>
      <trkpt lat="43.84048" lon="7.05016">
        <ele>609.41</ele>
        <time>2017-10-29T11:42:24Z</time>
      </trkpt>
      <trkpt lat="43.84033" lon="7.05029">
        <ele>609.21</ele>
        <time>2017-10-29T11:42:27Z</time>
      </trkpt>
      <trkpt lat="43.84012" lon="7.05041">
        <ele>610.57</ele>
        <time>2017-10-29T11:42:31Z</time>
      </trkpt>
      <trkpt lat="43.83992" lon="7.05043">
        <ele>612.66</ele>
        <time>2017-10-29T11:42:35Z</time>
      </trkpt>
      <trkpt lat="43.83979" lon="7.05064">
        <ele>611.6</ele>
        <time>2017-10-29T11:42:39Z</time>
      </trkpt>
      <trkpt lat="43.83976" lon="7.05092">
        <ele>609.85</ele>
        <time>2017-10-29T11:42:43Z</time>
      </trkpt>
      <trkpt lat="43.83973" lon="7.05122">
        <ele>607.68</ele>
        <time>2017-10-29T11:42:47Z</time>
      </trkpt>
      <trkpt lat="43.83981" lon="7.05151">
        <ele>606.15</ele>
        <time>2017-10-29T11:42:51Z</time>
      </trkpt>
      <trkpt lat="43.83999" lon="7.05164">
        <ele>605.5</ele>
        <time>2017-10-29T11:42:55Z</time>
      </trkpt>
      <trkpt lat="43.84021" lon="7.05171">
        <ele>607.4</ele>
        <time>2017-10-29T11:42:59Z</time>
      </trkpt>
      <trkpt lat="43.84044" lon="7.05173">
        <ele>611.76</ele>
        <time>2017-10-29T11:43:03Z</time>
      </trkpt>
      <trkpt lat="43.8406" lon="7.05193">
        <ele>613.98</ele>
        <time>2017-10-29T11:43:07Z</time>
      </trkpt>
      <trkpt lat="43.84066" lon="7.05223">
        <ele>612.51</ele>
        <time>2017-10-29T11:43:11Z</time>
      </trkpt>
      <trkpt lat="43.84074" lon="7.05252">
        <ele>610.35</ele>
        <time>2017-10-29T11:43:15Z</time>
      </trkpt>
      <trkpt lat="43.84083" lon="7.05282">
        <ele>609.21</ele>
        <time>2017-10-29T11:43:19Z</time>
      </trkpt>
      <trkpt lat="43.84089" lon="7.05312">
        <ele>608.62</ele>
        <time>2017-10-29T11:43:23Z</time>
      </trkpt>
      <trkpt lat="43.84093" lon="7.05343">
        <ele>608.15</ele>
        <time>2017-10-29T11:43:27Z</time>
      </trkpt>
      <trkpt lat="43.84094" lon="7.05375">
        <ele>606.9</ele>
        <time>2017-10-29T11:43:31Z</time>
      </trkpt>
      <trkpt lat="43.84088" lon="7.05405">
        <ele>605.67</ele>
        <time>2017-10-29T11:43:35Z</time>
      </trkpt>
      <trkpt lat="43.84077" lon="7.05424">
        <ele>604.68</ele>
        <time>2017-10-29T11:43:38Z</time>
      </trkpt>
      <trkpt lat="43.84066" lon="7.05444">
        <ele>604.33</ele>
        <time>2017-10-29T11:43:41Z</time>
      </trkpt>
      <trkpt lat="43.84061" lon="7.05475">
        <ele>605.87</ele>
        <time>2017-10-29T11:43:45Z</time>
      </trkpt>
      <trkpt lat="43.84065" lon="7.05505">
        <ele>604.94</ele>
        <time>2017-10-29T11:43:49Z</time>
      </trkpt>
      <trkpt lat="43.84058" lon="7.05534">
        <ele>604.61</ele>
        <time>2017-10-29T11:43:53Z</time>
      </trkpt>
      <trkpt lat="43.84049" lon="7.05558">
        <ele>604.8</ele>
        <time>2017-10-29T11:43:56Z</time>
      </trkpt>
      <trkpt lat="43.84046" lon="7.05586">
        <ele>604.58</ele>
        <time>2017-10-29T11:44:00Z</time>
      </trkpt>
      <trkpt lat="43.84036" lon="7.05613">
        <ele>604.89</ele>
        <time>2017-10-29T11:44:04Z</time>
      </trkpt>
      <trkpt lat="43.84017" lon="7.05624">
        <ele>605.69</ele>
        <time>2017-10-29T11:44:08Z</time>
      </trkpt>
      <trkpt lat="43.83998" lon="7.05619">
        <ele>608.69</ele>
        <time>2017-10-29T11:44:12Z</time>
      </trkpt>
      <trkpt lat="43.83976" lon="7.05618">
        <ele>611.31</ele>
        <time>2017-10-29T11:44:16Z</time>
      </trkpt>
      <trkpt lat="43.83964" lon="7.0564">
        <ele>611.54</ele>
        <time>2017-10-29T11:44:20Z</time>
      </trkpt>
      <trkpt lat="43.8395" lon="7.05658">
        <ele>610.49</ele>
        <time>2017-10-29T11:44:23Z</time>
      </trkpt>
      <trkpt lat="43.83941" lon="7.05682">
        <ele>609.78</ele>
        <time>2017-10-29T11:44:26Z</time>
      </trkpt>
      <trkpt lat="43.83936" lon="7.05708">
        <ele>609.62</ele>
        <time>2017-10-29T11:44:29Z</time>
      </trkpt>
      <trkpt lat="43.83938" lon="7.05734">
        <ele>609.32</ele>
        <time>2017-10-29T11:44:32Z</time>
      </trkpt>
      <trkpt lat="43.83943" lon="7.05762">
        <ele>608.19</ele>
        <time>2017-10-29T11:44:35Z</time>
      </trkpt>
      <trkpt lat="43.83947" lon="7.05789">
        <ele>607.34</ele>
        <time>2017-10-29T11:44:38Z</time>
      </trkpt>
      <trkpt lat="43.83944" lon="7.05814">
        <ele>606.91</ele>
        <time>2017-10-29T11:44:41Z</time>
      </trkpt>
      <trkpt lat="43.83937" lon="7.05841">
        <ele>606.74</ele>
        <time>2017-10-29T11:44:44Z</time>
      </trkpt>
      <trkpt lat="43.83934" lon="7.05871">
        <ele>606.48</ele>
        <time>2017-10-29T11:44:48Z</time>
      </trkpt>
      <trkpt lat="43.83944" lon="7.059">
        <ele>604.44</ele>
        <time>2017-10-29T11:44:52Z</time>
      </trkpt>
      <trkpt lat="43.83948" lon="7.05925">
        <ele>602.92</ele>
        <time>2017-10-29T11:44:55Z</time>
      </trkpt>
      <trkpt lat="43.83946" lon="7.05951">
        <ele>601.66</ele>
        <time>2017-10-29T11:44:58Z</time>
      </trkpt>
      <trkpt lat="43.83937" lon="7.05973">
        <ele>601.56</ele>
        <time>2017-10-29T11:45:01Z</time>
      </trkpt>
      <trkpt lat="43.83926" lon="7.05994">
        <ele>602.05</ele>
        <time>2017-10-29T11:45:04Z</time>
      </trkpt>
      <trkpt lat="43.83919" lon="7.06019">
        <ele>602.98</ele>
        <time>2017-10-29T11:45:07Z</time>
      </trkpt>
      <trkpt lat="43.83914" lon="7.0605">
        <ele>603.19</ele>
        <time>2017-10-29T11:45:11Z</time>
      </trkpt>
      <trkpt lat="43.83907" lon="7.06077">
        <ele>603.2</ele>
        <time>2017-10-29T11:45:14Z</time>
      </trkpt>
      <trkpt lat="43.83903" lon="7.06108">
        <ele>603.32</ele>
        <time>2017-10-29T11:45:18Z</time>
      </trkpt>
      <trkpt lat="43.83922" lon="7.06124">
        <ele>603.47</ele>
        <time>2017-10-29T11:45:22Z</time>
      </trkpt>
      <trkpt lat="43.83938" lon="7.06139">
        <ele>605.13</ele>
        <time>2017-10-29T11:45:25Z</time>
      </trkpt>
      <trkpt lat="43.83943" lon="7.06171">
        <ele>605.06</ele>
        <time>2017-10-29T11:45:29Z</time>
      </trkpt>
      <trkpt lat="43.83965" lon="7.06184">
        <ele>605.18</ele>
        <time>2017-10-29T11:45:33Z</time>
      </trkpt>
      <trkpt lat="43.83985" lon="7.0619">
        <ele>606.16</ele>
        <time>2017-10-29T11:45:36Z</time>
      </trkpt>
      <trkpt lat="43.83997" lon="7.06208">
        <ele>606.59</ele>
        <time>2017-10-29T11:45:39Z</time>
      </trkpt>
      <trkpt lat="43.84001" lon="7.06233">
        <ele>605.45</ele>
        <time>2017-10-29T11:45:42Z</time>
      </trkpt>
      <trkpt lat="43.84" lon="7.06266">
        <ele>603.91</ele>
        <time>2017-10-29T11:45:46Z</time>
      </trkpt>
      <trkpt lat="43.83998" lon="7.06292">
        <ele>603.05</ele>
        <time>2017-10-29T11:45:49Z</time>
      </trkpt>
      <trkpt lat="43.83997" lon="7.06318">
        <ele>602.21</ele>
        <time>2017-10-29T11:45:52Z</time>
      </trkpt>
      <trkpt lat="43.83997" lon="7.06343">
        <ele>602.13</ele>
        <time>2017-10-29T11:45:55Z</time>
      </trkpt>
      <trkpt lat="43.83997" lon="7.06368">
        <ele>601.92</ele>
        <time>2017-10-29T11:45:58Z</time>
      </trkpt>
      <trkpt lat="43.83997" lon="7.06402">
        <ele>601.03</ele>
        <time>2017-10-29T11:46:02Z</time>
      </trkpt>
      <trkpt lat="43.83999" lon="7.06434">
        <ele>600.08</ele>
        <time>2017-10-29T11:46:06Z</time>
      </trkpt>
      <trkpt lat="43.84002" lon="7.0646">
        <ele>599.46</ele>
        <time>2017-10-29T11:46:09Z</time>
      </trkpt>
      <trkpt lat="43.84006" lon="7.06485">
        <ele>599.33</ele>
        <time>2017-10-29T11:46:12Z</time>
      </trkpt>
      <trkpt lat="43.84008" lon="7.06512">
        <ele>599.81</ele>
        <time>2017-10-29T11:46:15Z</time>
      </trkpt>
      <trkpt lat="43.84004" lon="7.06537">
        <ele>600.49</ele>
        <time>2017-10-29T11:46:18Z</time>
      </trkpt>
      <trkpt lat="43.83996" lon="7.06561">
        <ele>601.62</ele>
        <time>2017-10-29T11:46:21Z</time>
      </trkpt>
      <trkpt lat="43.83982" lon="7.06589">
        <ele>602.38</ele>
        <time>2017-10-29T11:46:25Z</time>
      </trkpt>
      <trkpt lat="43.83977" lon="7.0662">
        <ele>602.32</ele>
        <time>2017-10-29T11:46:29Z</time>
      </trkpt>
      <trkpt lat="43.8398" lon="7.06645">
        <ele>601.85</ele>
        <time>2017-10-29T11:46:32Z</time>
      </trkpt>
      <trkpt lat="43.83981" lon="7.06672">
        <ele>601.33</ele>
        <time>2017-10-29T11:46:35Z</time>
      </trkpt>
      <trkpt lat="43.83978" lon="7.067">
        <ele>600.93</ele>
        <time>2017-10-29T11:46:38Z</time>
      </trkpt>
      <trkpt lat="43.83975" lon="7.06725">
        <ele>600.95</ele>
        <time>2017-10-29T11:46:41Z</time>
      </trkpt>
      <trkpt lat="43.83973" lon="7.06757">
        <ele>600.46</ele>
        <time>2017-10-29T11:46:45Z</time>
      </trkpt>
      <trkpt lat="43.83973" lon="7.06782">
        <ele>600.27</ele>
        <time>2017-10-29T11:46:48Z</time>
      </trkpt>
      <trkpt lat="43.83973" lon="7.06815">
        <ele>599.69</ele>
        <time>2017-10-29T11:46:52Z</time>
      </trkpt>
      <trkpt lat="43.83971" lon="7.06841">
        <ele>599.33</ele>
        <time>2017-10-29T11:46:55Z</time>
      </trkpt>
      <trkpt lat="43.83969" lon="7.06867">
        <ele>599.19</ele>
        <time>2017-10-29T11:46:58Z</time>
      </trkpt>
      <trkpt lat="43.83965" lon="7.06893">
        <ele>599.21</ele>
        <time>2017-10-29T11:47:01Z</time>
      </trkpt>
      <trkpt lat="43.83966" lon="7.06918">
        <ele>599.09</ele>
        <time>2017-10-29T11:47:04Z</time>
      </trkpt>
      <trkpt lat="43.83968" lon="7.0695">
        <ele>598.47</ele>
        <time>2017-10-29T11:47:08Z</time>
      </trkpt>
      <trkpt lat="43.83971" lon="7.06976">
        <ele>597.94</ele>
        <time>2017-10-29T11:47:11Z</time>
      </trkpt>
      <trkpt lat="43.83973" lon="7.07001">
        <ele>597.17</ele>
        <time>2017-10-29T11:47:14Z</time>
      </trkpt>
      <trkpt lat="43.83975" lon="7.07026">
        <ele>596.64</ele>
        <time>2017-10-29T11:47:17Z</time>
      </trkpt>
      <trkpt lat="43.83976" lon="7.07054">
        <ele>596.38</ele>
        <time>2017-10-29T11:47:20Z</time>
      </trkpt>
      <trkpt lat="43.83977" lon="7.07082">
        <ele>596.14</ele>
        <time>2017-10-29T11:47:23Z</time>
      </trkpt>
      <trkpt lat="43.83981" lon="7.07108">
        <ele>595.89</ele>
        <time>2017-10-29T11:47:26Z</time>
      </trkpt>
      <trkpt lat="43.83985" lon="7.07136">
        <ele>595.64</ele>
        <time>2017-10-29T11:47:29Z</time>
      </trkpt>
      <trkpt lat="43.83987" lon="7.07162">
        <ele>595.32</ele>
        <time>2017-10-29T11:47:32Z</time>
      </trkpt>
      <trkpt lat="43.83988" lon="7.0719">
        <ele>595.14</ele>
        <time>2017-10-29T11:47:35Z</time>
      </trkpt>
      <trkpt lat="43.8399" lon="7.07215">
        <ele>594.85</ele>
        <time>2017-10-29T11:47:38Z</time>
      </trkpt>
      <trkpt lat="43.83991" lon="7.07242">
        <ele>594.87</ele>
        <time>2017-10-29T11:47:41Z</time>
      </trkpt>
      <trkpt lat="43.83993" lon="7.07268">
        <ele>594.55</ele>
        <time>2017-10-29T11:47:44Z</time>
      </trkpt>
      <trkpt lat="43.83993" lon="7.07295">
        <ele>594.16</ele>
        <time>2017-10-29T11:47:47Z</time>
      </trkpt>
      <trkpt lat="43.83989" lon="7.07322">
        <ele>594.22</ele>
        <time>2017-10-29T11:47:50Z</time>
      </trkpt>
      <trkpt lat="43.83985" lon="7.07348">
        <ele>594.57</ele>
        <time>2017-10-29T11:47:53Z</time>
      </trkpt>
      <trkpt lat="43.8399" lon="7.07374">
        <ele>594.4</ele>
        <time>2017-10-29T11:47:56Z</time>
      </trkpt>
      <trkpt lat="43.83998" lon="7.07398">
        <ele>594.07</ele>
        <time>2017-10-29T11:47:59Z</time>
      </trkpt>
      <trkpt lat="43.84005" lon="7.07422">
        <ele>593.52</ele>
        <time>2017-10-29T11:48:02Z</time>
      </trkpt>
      <trkpt lat="43.84009" lon="7.07447">
        <ele>593.04</ele>
        <time>2017-10-29T11:48:05Z</time>
      </trkpt>
      <trkpt lat="43.84011" lon="7.07473">
        <ele>592.36</ele>
        <time>2017-10-29T11:48:08Z</time>
      </trkpt>
      <trkpt lat="43.8401" lon="7.07499">
        <ele>591.8</ele>
        <time>2017-10-29T11:48:11Z</time>
      </trkpt>
      <trkpt lat="43.84007" lon="7.07531">
        <ele>591.13</ele>
        <time>2017-10-29T11:48:15Z</time>
      </trkpt>
      <trkpt lat="43.84002" lon="7.07562">
        <ele>591.7</ele>
        <time>2017-10-29T11:48:19Z</time>
      </trkpt>
      <trkpt lat="43.83999" lon="7.07594">
        <ele>593.53</ele>
        <time>2017-10-29T11:48:23Z</time>
      </trkpt>
      <trkpt lat="43.83997" lon="7.07619">
        <ele>594.76</ele>
        <time>2017-10-29T11:48:26Z</time>
      </trkpt>
      <trkpt lat="43.83996" lon="7.07644">
        <ele>595.85</ele>
        <time>2017-10-29T11:48:29Z</time>
      </trkpt>
      <trkpt lat="43.83996" lon="7.07678">
        <ele>596.66</ele>
        <time>2017-10-29T11:48:33Z</time>
      </trkpt>
      <trkpt lat="43.83999" lon="7.07709">
        <ele>597.31</ele>
        <time>2017-10-29T11:48:37Z</time>
      </trkpt>
      <trkpt lat="43.84001" lon="7.0774">
        <ele>596.72</ele>
        <time>2017-10-29T11:48:41Z</time>
      </trkpt>
      <trkpt lat="43.84001" lon="7.07773">
        <ele>595.06</ele>
        <time>2017-10-29T11:48:45Z</time>
      </trkpt>
      <trkpt lat="43.84002" lon="7.07798">
        <ele>593.76</ele>
        <time>2017-10-29T11:48:48Z</time>
      </trkpt>
      <trkpt lat="43.84002" lon="7.07831">
        <ele>592.8</ele>
        <time>2017-10-29T11:48:52Z</time>
      </trkpt>
      <trkpt lat="43.84002" lon="7.07856">
        <ele>592.33</ele>
        <time>2017-10-29T11:48:55Z</time>
      </trkpt>
      <trkpt lat="43.84003" lon="7.07882">
        <ele>591.94</ele>
        <time>2017-10-29T11:48:58Z</time>
      </trkpt>
      <trkpt lat="43.84007" lon="7.07906">
        <ele>591.7</ele>
        <time>2017-10-29T11:49:01Z</time>
      </trkpt>
      <trkpt lat="43.84013" lon="7.0793">
        <ele>591.73</ele>
        <time>2017-10-29T11:49:04Z</time>
      </trkpt>
      <trkpt lat="43.8402" lon="7.07961">
        <ele>591.81</ele>
        <time>2017-10-29T11:49:08Z</time>
      </trkpt>
      <trkpt lat="43.84023" lon="7.07992">
        <ele>592.09</ele>
        <time>2017-10-29T11:49:12Z</time>
      </trkpt>
      <trkpt lat="43.84021" lon="7.08024">
        <ele>592.04</ele>
        <time>2017-10-29T11:49:16Z</time>
      </trkpt>
      <trkpt lat="43.84016" lon="7.08048">
        <ele>592.24</ele>
        <time>2017-10-29T11:49:19Z</time>
      </trkpt>
      <trkpt lat="43.84015" lon="7.08078">
        <ele>592.39</ele>
        <time>2017-10-29T11:49:23Z</time>
      </trkpt>
      <trkpt lat="43.84025" lon="7.08109">
        <ele>592.28</ele>
        <time>2017-10-29T11:49:27Z</time>
      </trkpt>
      <trkpt lat="43.84032" lon="7.08133">
        <ele>592.45</ele>
        <time>2017-10-29T11:49:30Z</time>
      </trkpt>
      <trkpt lat="43.84036" lon="7.08157">
        <ele>592.57</ele>
        <time>2017-10-29T11:49:33Z</time>
      </trkpt>
      <trkpt lat="43.84038" lon="7.0819">
        <ele>592.38</ele>
        <time>2017-10-29T11:49:37Z</time>
      </trkpt>
      <trkpt lat="43.84036" lon="7.08223">
        <ele>591.28</ele>
        <time>2017-10-29T11:49:41Z</time>
      </trkpt>
      <trkpt lat="43.84031" lon="7.08247">
        <ele>590.93</ele>
        <time>2017-10-29T11:49:44Z</time>
      </trkpt>
      <trkpt lat="43.84032" lon="7.08275">
        <ele>591.01</ele>
        <time>2017-10-29T11:49:47Z</time>
      </trkpt>
      <trkpt lat="43.84037" lon="7.083">
        <ele>591.28</ele>
        <time>2017-10-29T11:49:50Z</time>
      </trkpt>
      <trkpt lat="43.84039" lon="7.08333">
        <ele>591.32</ele>
        <time>2017-10-29T11:49:54Z</time>
      </trkpt>
      <trkpt lat="43.84035" lon="7.08359">
        <ele>590.97</ele>
        <time>2017-10-29T11:49:57Z</time>
      </trkpt>
      <trkpt lat="43.8403" lon="7.08383">
        <ele>591.14</ele>
        <time>2017-10-29T11:50:00Z</time>
      </trkpt>
      <trkpt lat="43.84036" lon="7.08411">
        <ele>591.22</ele>
        <time>2017-10-29T11:50:04Z</time>
      </trkpt>
      <trkpt lat="43.84043" lon="7.08435">
        <ele>591.43</ele>
        <time>2017-10-29T11:50:07Z</time>
      </trkpt>
      <trkpt lat="43.84044" lon="7.08467">
        <ele>591.47</ele>
        <time>2017-10-29T11:50:11Z</time>
      </trkpt>
      <trkpt lat="43.84019" lon="7.08506">
        <ele>592.84</ele>
        <time>2017-10-29T11:53:14Z</time>
      </trkpt>
      <trkpt lat="43.84002" lon="7.0852">
        <ele>594.26</ele>
        <time>2017-10-29T11:53:42Z</time>
      </trkpt>
      <trkpt lat="43.83997" lon="7.08545">
        <ele>594.82</ele>
        <time>2017-10-29T11:53:50Z</time>
      </trkpt>
      <trkpt lat="43.83992" lon="7.08569">
        <ele>594.87</ele>
        <time>2017-10-29T11:53:58Z</time>
      </trkpt>
      <trkpt lat="43.83986" lon="7.08595">
        <ele>597.07</ele>
        <time>2017-10-29T11:54:10Z</time>
      </trkpt>
      <trkpt lat="43.83981" lon="7.08621">
        <ele>599.09</ele>
        <time>2017-10-29T11:54:20Z</time>
      </trkpt>
      <trkpt lat="43.83976" lon="7.08647">
        <ele>600.03</ele>
        <time>2017-10-29T11:54:31Z</time>
      </trkpt>
      <trkpt lat="43.83974" lon="7.08673">
        <ele>600.96</ele>
        <time>2017-10-29T11:54:45Z</time>
      </trkpt>
      <trkpt lat="43.83975" lon="7.08699">
        <ele>602.37</ele>
        <time>2017-10-29T11:54:59Z</time>
      </trkpt>
      <trkpt lat="43.83971" lon="7.08725">
        <ele>603.8</ele>
        <time>2017-10-29T11:55:10Z</time>
      </trkpt>
      <trkpt lat="43.8396" lon="7.08746">
        <ele>604.72</ele>
        <time>2017-10-29T11:55:22Z</time>
      </trkpt>
      <trkpt lat="43.8395" lon="7.08725">
        <ele>608.01</ele>
        <time>2017-10-29T11:55:38Z</time>
      </trkpt>
      <trkpt lat="43.83957" lon="7.08701">
        <ele>608.69</ele>
        <time>2017-10-29T11:55:50Z</time>
      </trkpt>
      <trkpt lat="43.83953" lon="7.08676">
        <ele>609.52</ele>
        <time>2017-10-29T11:56:04Z</time>
      </trkpt>
      <trkpt lat="43.83946" lon="7.08651">
        <ele>610.4</ele>
        <time>2017-10-29T11:56:17Z</time>
      </trkpt>
      <trkpt lat="43.83939" lon="7.08628">
        <ele>611.23</ele>
        <time>2017-10-29T11:56:29Z</time>
      </trkpt>
      <trkpt lat="43.83933" lon="7.08604">
        <ele>612.18</ele>
        <time>2017-10-29T11:56:43Z</time>
      </trkpt>
      <trkpt lat="43.83926" lon="7.0858">
        <ele>613.13</ele>
        <time>2017-10-29T11:56:56Z</time>
      </trkpt>
      <trkpt lat="43.83922" lon="7.08555">
        <ele>614.36</ele>
        <time>2017-10-29T11:57:08Z</time>
      </trkpt>
      <trkpt lat="43.83919" lon="7.08529">
        <ele>615.74</ele>
        <time>2017-10-29T11:57:21Z</time>
      </trkpt>
      <trkpt lat="43.83917" lon="7.08503">
        <ele>617.6</ele>
        <time>2017-10-29T11:57:34Z</time>
      </trkpt>
      <trkpt lat="43.83916" lon="7.08477">
        <ele>619.52</ele>
        <time>2017-10-29T11:57:46Z</time>
      </trkpt>
      <trkpt lat="43.83911" lon="7.08452">
        <ele>621.7</ele>
        <time>2017-10-29T11:57:58Z</time>
      </trkpt>
      <trkpt lat="43.83908" lon="7.08426">
        <ele>623.71</ele>
        <time>2017-10-29T11:58:10Z</time>
      </trkpt>
      <trkpt lat="43.83904" lon="7.08401">
        <ele>625.43</ele>
        <time>2017-10-29T11:58:22Z</time>
      </trkpt>
      <trkpt lat="43.83901" lon="7.08375">
        <ele>627.38</ele>
        <time>2017-10-29T11:58:34Z</time>
      </trkpt>
      <trkpt lat="43.83899" lon="7.08349">
        <ele>629.6</ele>
        <time>2017-10-29T11:58:47Z</time>
      </trkpt>
      <trkpt lat="43.83896" lon="7.08323">
        <ele>631.98</ele>
        <time>2017-10-29T11:59:00Z</time>
      </trkpt>
      <trkpt lat="43.83894" lon="7.08295">
        <ele>634.09</ele>
        <time>2017-10-29T11:59:13Z</time>
      </trkpt>
      <trkpt lat="43.83892" lon="7.08269">
        <ele>636.63</ele>
        <time>2017-10-29T11:59:26Z</time>
      </trkpt>
      <trkpt lat="43.83888" lon="7.08244">
        <ele>638.49</ele>
        <time>2017-10-29T11:59:38Z</time>
      </trkpt>
      <trkpt lat="43.83884" lon="7.08217">
        <ele>640.47</ele>
        <time>2017-10-29T11:59:51Z</time>
      </trkpt>
      <trkpt lat="43.83881" lon="7.08192">
        <ele>642.65</ele>
        <time>2017-10-29T12:00:04Z</time>
      </trkpt>
      <trkpt lat="43.8388" lon="7.08164">
        <ele>644.5</ele>
        <time>2017-10-29T12:00:16Z</time>
      </trkpt>
      <trkpt lat="43.83866" lon="7.08181">
        <ele>652.99</ele>
        <time>2017-10-29T12:00:49Z</time>
      </trkpt>
      <trkpt lat="43.83862" lon="7.08207">
        <ele>656.91</ele>
        <time>2017-10-29T12:01:02Z</time>
      </trkpt>
      <trkpt lat="43.83857" lon="7.08233">
        <ele>660.32</ele>
        <time>2017-10-29T12:01:16Z</time>
      </trkpt>
      <trkpt lat="43.83852" lon="7.08257">
        <ele>663.53</ele>
        <time>2017-10-29T12:01:28Z</time>
      </trkpt>
      <trkpt lat="43.83849" lon="7.08284">
        <ele>666.14</ele>
        <time>2017-10-29T12:01:41Z</time>
      </trkpt>
      <trkpt lat="43.83842" lon="7.08308">
        <ele>668.01</ele>
        <time>2017-10-29T12:01:52Z</time>
      </trkpt>
      <trkpt lat="43.83831" lon="7.08329">
        <ele>671.02</ele>
        <time>2017-10-29T12:02:05Z</time>
      </trkpt>
      <trkpt lat="43.83822" lon="7.08353">
        <ele>673.25</ele>
        <time>2017-10-29T12:02:17Z</time>
      </trkpt>
      <trkpt lat="43.83819" lon="7.08377">
        <ele>674.72</ele>
        <time>2017-10-29T12:02:29Z</time>
      </trkpt>
      <trkpt lat="43.83814" lon="7.08403">
        <ele>676.35</ele>
        <time>2017-10-29T12:02:41Z</time>
      </trkpt>
      <trkpt lat="43.83811" lon="7.08428">
        <ele>678.39</ele>
        <time>2017-10-29T12:02:54Z</time>
      </trkpt>
      <trkpt lat="43.83807" lon="7.08453">
        <ele>680.9</ele>
        <time>2017-10-29T12:03:07Z</time>
      </trkpt>
      <trkpt lat="43.83798" lon="7.08476">
        <ele>683.43</ele>
        <time>2017-10-29T12:03:19Z</time>
      </trkpt>
      <trkpt lat="43.83794" lon="7.08501">
        <ele>686.65</ele>
        <time>2017-10-29T12:03:34Z</time>
      </trkpt>
      <trkpt lat="43.83796" lon="7.08527">
        <ele>689.44</ele>
        <time>2017-10-29T12:03:48Z</time>
      </trkpt>
      <trkpt lat="43.83793" lon="7.08554">
        <ele>691.84</ele>
        <time>2017-10-29T12:04:02Z</time>
      </trkpt>
      <trkpt lat="43.83792" lon="7.08579">
        <ele>693.42</ele>
        <time>2017-10-29T12:04:16Z</time>
      </trkpt>
      <trkpt lat="43.83794" lon="7.08605">
        <ele>694.22</ele>
        <time>2017-10-29T12:04:30Z</time>
      </trkpt>
      <trkpt lat="43.83782" lon="7.08586">
        <ele>701.01</ele>
        <time>2017-10-29T12:08:58Z</time>
      </trkpt>
      <trkpt lat="43.8378" lon="7.0856">
        <ele>701.57</ele>
        <time>2017-10-29T12:09:12Z</time>
      </trkpt>
      <trkpt lat="43.83773" lon="7.08538">
        <ele>702.62</ele>
        <time>2017-10-29T12:09:24Z</time>
      </trkpt>
      <trkpt lat="43.83764" lon="7.08513">
        <ele>705.21</ele>
        <time>2017-10-29T12:09:37Z</time>
      </trkpt>
      <trkpt lat="43.83758" lon="7.08489">
        <ele>707.21</ele>
        <time>2017-10-29T12:09:52Z</time>
      </trkpt>
      <trkpt lat="43.83755" lon="7.08463">
        <ele>708.66</ele>
        <time>2017-10-29T12:10:06Z</time>
      </trkpt>
      <trkpt lat="43.83751" lon="7.08439">
        <ele>710.66</ele>
        <time>2017-10-29T12:10:18Z</time>
      </trkpt>
      <trkpt lat="43.83752" lon="7.08413">
        <ele>713</ele>
        <time>2017-10-29T12:10:34Z</time>
      </trkpt>
      <trkpt lat="43.83751" lon="7.08388">
        <ele>714.67</ele>
        <time>2017-10-29T12:10:47Z</time>
      </trkpt>
      <trkpt lat="43.83749" lon="7.08362">
        <ele>716.82</ele>
        <time>2017-10-29T12:11:03Z</time>
      </trkpt>
      <trkpt lat="43.83744" lon="7.08336">
        <ele>718.17</ele>
        <time>2017-10-29T12:11:18Z</time>
      </trkpt>
      <trkpt lat="43.8374" lon="7.08312">
        <ele>720.12</ele>
        <time>2017-10-29T12:11:30Z</time>
      </trkpt>
      <trkpt lat="43.83737" lon="7.08286">
        <ele>721.6</ele>
        <time>2017-10-29T12:11:48Z</time>
      </trkpt>
      <trkpt lat="43.83733" lon="7.0826">
        <ele>722.35</ele>
        <time>2017-10-29T12:12:01Z</time>
      </trkpt>
      <trkpt lat="43.83731" lon="7.08234">
        <ele>725.12</ele>
        <time>2017-10-29T12:12:15Z</time>
      </trkpt>
      <trkpt lat="43.83727" lon="7.0821">
        <ele>728.5</ele>
        <time>2017-10-29T12:12:30Z</time>
      </trkpt>
      <trkpt lat="43.83723" lon="7.08185">
        <ele>730.13</ele>
        <time>2017-10-29T12:12:43Z</time>
      </trkpt>
      <trkpt lat="43.83719" lon="7.08159">
        <ele>732.72</ele>
        <time>2017-10-29T12:12:59Z</time>
      </trkpt>
      <trkpt lat="43.83715" lon="7.08134">
        <ele>734.1</ele>
        <time>2017-10-29T12:13:12Z</time>
      </trkpt>
      <trkpt lat="43.83714" lon="7.08109">
        <ele>736.5</ele>
        <time>2017-10-29T12:13:29Z</time>
      </trkpt>
      <trkpt lat="43.83711" lon="7.08084">
        <ele>737.37</ele>
        <time>2017-10-29T12:13:43Z</time>
      </trkpt>
      <trkpt lat="43.83705" lon="7.0806">
        <ele>738.6</ele>
        <time>2017-10-29T12:13:56Z</time>
      </trkpt>
      <trkpt lat="43.83704" lon="7.08033">
        <ele>740.75</ele>
        <time>2017-10-29T12:14:12Z</time>
      </trkpt>
      <trkpt lat="43.837" lon="7.08008">
        <ele>742.31</ele>
        <time>2017-10-29T12:14:28Z</time>
      </trkpt>
      <trkpt lat="43.83699" lon="7.07983">
        <ele>743.78</ele>
        <time>2017-10-29T12:14:44Z</time>
      </trkpt>
      <trkpt lat="43.83699" lon="7.07957">
        <ele>746.73</ele>
        <time>2017-10-29T12:15:00Z</time>
      </trkpt>
      <trkpt lat="43.83698" lon="7.07932">
        <ele>748.93</ele>
        <time>2017-10-29T12:15:13Z</time>
      </trkpt>
      <trkpt lat="43.83697" lon="7.07906">
        <ele>751.49</ele>
        <time>2017-10-29T12:15:28Z</time>
      </trkpt>
      <trkpt lat="43.83698" lon="7.07879">
        <ele>754.29</ele>
        <time>2017-10-29T12:15:45Z</time>
      </trkpt>
      <trkpt lat="43.83697" lon="7.07854">
        <ele>756.99</ele>
        <time>2017-10-29T12:16:00Z</time>
      </trkpt>
      <trkpt lat="43.83698" lon="7.07827">
        <ele>759.79</ele>
        <time>2017-10-29T12:16:16Z</time>
      </trkpt>
      <trkpt lat="43.837" lon="7.07801">
        <ele>762.51</ele>
        <time>2017-10-29T12:16:33Z</time>
      </trkpt>
      <trkpt lat="43.83701" lon="7.07775">
        <ele>765.36</ele>
        <time>2017-10-29T12:16:48Z</time>
      </trkpt>
      <trkpt lat="43.83703" lon="7.07748">
        <ele>767.27</ele>
        <time>2017-10-29T12:17:06Z</time>
      </trkpt>
      <trkpt lat="43.83704" lon="7.07723">
        <ele>769.1</ele>
        <time>2017-10-29T12:17:21Z</time>
      </trkpt>
      <trkpt lat="43.83701" lon="7.07698">
        <ele>770.81</ele>
        <time>2017-10-29T12:17:38Z</time>
      </trkpt>
      <trkpt lat="43.83699" lon="7.07672">
        <ele>772.84</ele>
        <time>2017-10-29T12:17:54Z</time>
      </trkpt>
      <trkpt lat="43.83699" lon="7.07646">
        <ele>774.14</ele>
        <time>2017-10-29T12:18:11Z</time>
      </trkpt>
      <trkpt lat="43.83696" lon="7.07621">
        <ele>775.47</ele>
        <time>2017-10-29T12:18:26Z</time>
      </trkpt>
      <trkpt lat="43.83698" lon="7.07595">
        <ele>777.38</ele>
        <time>2017-10-29T12:18:42Z</time>
      </trkpt>
      <trkpt lat="43.83696" lon="7.0757">
        <ele>780.22</ele>
        <time>2017-10-29T12:18:59Z</time>
      </trkpt>
      <trkpt lat="43.83692" lon="7.07544">
        <ele>782.07</ele>
        <time>2017-10-29T12:19:17Z</time>
      </trkpt>
      <trkpt lat="43.83684" lon="7.0752">
        <ele>784.49</ele>
        <time>2017-10-29T12:19:33Z</time>
      </trkpt>
      <trkpt lat="43.83675" lon="7.07498">
        <ele>786.72</ele>
        <time>2017-10-29T12:19:51Z</time>
      </trkpt>
      <trkpt lat="43.83666" lon="7.07477">
        <ele>789.95</ele>
        <time>2017-10-29T12:20:50Z</time>
      </trkpt>
      <trkpt lat="43.83656" lon="7.07455">
        <ele>791.33</ele>
        <time>2017-10-29T12:21:14Z</time>
      </trkpt>
      <trkpt lat="43.83646" lon="7.07434">
        <ele>793.22</ele>
        <time>2017-10-29T12:21:29Z</time>
      </trkpt>
      <trkpt lat="43.83633" lon="7.07415">
        <ele>795.48</ele>
        <time>2017-10-29T12:21:45Z</time>
      </trkpt>
      <trkpt lat="43.8362" lon="7.07398">
        <ele>796.13</ele>
        <time>2017-10-29T12:22:02Z</time>
      </trkpt>
      <trkpt lat="43.83611" lon="7.07375">
        <ele>798.31</ele>
        <time>2017-10-29T12:22:17Z</time>
      </trkpt>
      <trkpt lat="43.836" lon="7.07353">
        <ele>800.16</ele>
        <time>2017-10-29T12:22:32Z</time>
      </trkpt>
      <trkpt lat="43.83592" lon="7.07331">
        <ele>802.06</ele>
        <time>2017-10-29T12:22:45Z</time>
      </trkpt>
      <trkpt lat="43.83586" lon="7.07306">
        <ele>803.59</ele>
        <time>2017-10-29T12:23:01Z</time>
      </trkpt>
      <trkpt lat="43.83584" lon="7.07281">
        <ele>805.48</ele>
        <time>2017-10-29T12:23:18Z</time>
      </trkpt>
      <trkpt lat="43.83579" lon="7.07256">
        <ele>807.09</ele>
        <time>2017-10-29T12:23:33Z</time>
      </trkpt>
      <trkpt lat="43.83574" lon="7.07231">
        <ele>809.6</ele>
        <time>2017-10-29T12:23:50Z</time>
      </trkpt>
      <trkpt lat="43.83571" lon="7.07206">
        <ele>811.95</ele>
        <time>2017-10-29T12:24:06Z</time>
      </trkpt>
      <trkpt lat="43.83564" lon="7.07182">
        <ele>813.65</ele>
        <time>2017-10-29T12:24:21Z</time>
      </trkpt>
      <trkpt lat="43.83558" lon="7.07157">
        <ele>815.08</ele>
        <time>2017-10-29T12:24:38Z</time>
      </trkpt>
      <trkpt lat="43.83556" lon="7.07131">
        <ele>817.14</ele>
        <time>2017-10-29T12:24:55Z</time>
      </trkpt>
      <trkpt lat="43.83556" lon="7.07104">
        <ele>818.54</ele>
        <time>2017-10-29T12:25:11Z</time>
      </trkpt>
      <trkpt lat="43.83555" lon="7.07079">
        <ele>820.53</ele>
        <time>2017-10-29T12:25:27Z</time>
      </trkpt>
      <trkpt lat="43.83553" lon="7.07052">
        <ele>822.53</ele>
        <time>2017-10-29T12:25:45Z</time>
      </trkpt>
      <trkpt lat="43.83552" lon="7.07027">
        <ele>824.95</ele>
        <time>2017-10-29T12:26:02Z</time>
      </trkpt>
      <trkpt lat="43.83549" lon="7.07002">
        <ele>827.62</ele>
        <time>2017-10-29T12:26:45Z</time>
      </trkpt>
      <trkpt lat="43.83555" lon="7.06976">
        <ele>829.11</ele>
        <time>2017-10-29T12:33:13Z</time>
      </trkpt>
      <trkpt lat="43.83562" lon="7.06952">
        <ele>830.02</ele>
        <time>2017-10-29T12:33:21Z</time>
      </trkpt>
      <trkpt lat="43.83565" lon="7.06925">
        <ele>830.99</ele>
        <time>2017-10-29T12:33:29Z</time>
      </trkpt>
      <trkpt lat="43.83568" lon="7.06897">
        <ele>831.11</ele>
        <time>2017-10-29T12:33:38Z</time>
      </trkpt>
      <trkpt lat="43.83573" lon="7.06872">
        <ele>831.02</ele>
        <time>2017-10-29T12:33:46Z</time>
      </trkpt>
      <trkpt lat="43.83578" lon="7.06845">
        <ele>830.96</ele>
        <time>2017-10-29T12:33:54Z</time>
      </trkpt>
      <trkpt lat="43.83585" lon="7.06819">
        <ele>830.83</ele>
        <time>2017-10-29T12:34:02Z</time>
      </trkpt>
      <trkpt lat="43.83593" lon="7.06795">
        <ele>830.43</ele>
        <time>2017-10-29T12:34:09Z</time>
      </trkpt>
      <trkpt lat="43.83603" lon="7.06772">
        <ele>829.81</ele>
        <time>2017-10-29T12:34:16Z</time>
      </trkpt>
      <trkpt lat="43.83612" lon="7.06749">
        <ele>829.42</ele>
        <time>2017-10-29T12:34:23Z</time>
      </trkpt>
      <trkpt lat="43.83621" lon="7.06725">
        <ele>828.99</ele>
        <time>2017-10-29T12:34:30Z</time>
      </trkpt>
      <trkpt lat="43.83628" lon="7.067">
        <ele>828.37</ele>
        <time>2017-10-29T12:34:37Z</time>
      </trkpt>
      <trkpt lat="43.83629" lon="7.06673">
        <ele>827.83</ele>
        <time>2017-10-29T12:34:45Z</time>
      </trkpt>
      <trkpt lat="43.83627" lon="7.06647">
        <ele>827.48</ele>
        <time>2017-10-29T12:34:52Z</time>
      </trkpt>
      <trkpt lat="43.83629" lon="7.06622">
        <ele>827.36</ele>
        <time>2017-10-29T12:34:59Z</time>
      </trkpt>
      <trkpt lat="43.83627" lon="7.06597">
        <ele>827.35</ele>
        <time>2017-10-29T12:35:28Z</time>
      </trkpt>
      <trkpt lat="43.83618" lon="7.06573">
        <ele>828.42</ele>
        <time>2017-10-29T12:37:17Z</time>
      </trkpt>
      <trkpt lat="43.83613" lon="7.06548">
        <ele>827.8</ele>
        <time>2017-10-29T12:37:24Z</time>
      </trkpt>
      <trkpt lat="43.83609" lon="7.06522">
        <ele>827.58</ele>
        <time>2017-10-29T12:37:30Z</time>
      </trkpt>
      <trkpt lat="43.83605" lon="7.06497">
        <ele>827.46</ele>
        <time>2017-10-29T12:37:37Z</time>
      </trkpt>
      <trkpt lat="43.83601" lon="7.06472">
        <ele>827.34</ele>
        <time>2017-10-29T12:37:43Z</time>
      </trkpt>
      <trkpt lat="43.83598" lon="7.06447">
        <ele>827.53</ele>
        <time>2017-10-29T12:37:48Z</time>
      </trkpt>
      <trkpt lat="43.83592" lon="7.06419">
        <ele>827.98</ele>
        <time>2017-10-29T12:37:54Z</time>
      </trkpt>
      <trkpt lat="43.8359" lon="7.06393">
        <ele>828.28</ele>
        <time>2017-10-29T12:38:00Z</time>
      </trkpt>
      <trkpt lat="43.83586" lon="7.06365">
        <ele>828.48</ele>
        <time>2017-10-29T12:38:06Z</time>
      </trkpt>
      <trkpt lat="43.83584" lon="7.06338">
        <ele>828.69</ele>
        <time>2017-10-29T12:38:12Z</time>
      </trkpt>
      <trkpt lat="43.83579" lon="7.06312">
        <ele>828.78</ele>
        <time>2017-10-29T12:38:19Z</time>
      </trkpt>
      <trkpt lat="43.83584" lon="7.06288">
        <ele>828.92</ele>
        <time>2017-10-29T12:38:24Z</time>
      </trkpt>
      <trkpt lat="43.83587" lon="7.06262">
        <ele>828.86</ele>
        <time>2017-10-29T12:38:29Z</time>
      </trkpt>
      <trkpt lat="43.83586" lon="7.06235">
        <ele>829.1</ele>
        <time>2017-10-29T12:38:35Z</time>
      </trkpt>
      <trkpt lat="43.83584" lon="7.06209">
        <ele>829.51</ele>
        <time>2017-10-29T12:38:41Z</time>
      </trkpt>
      <trkpt lat="43.83583" lon="7.06181">
        <ele>829.97</ele>
        <time>2017-10-29T12:38:47Z</time>
      </trkpt>
      <trkpt lat="43.83583" lon="7.06154">
        <ele>830.45</ele>
        <time>2017-10-29T12:38:54Z</time>
      </trkpt>
      <trkpt lat="43.83584" lon="7.06129">
        <ele>830.79</ele>
        <time>2017-10-29T12:38:59Z</time>
      </trkpt>
      <trkpt lat="43.83587" lon="7.06102">
        <ele>831.17</ele>
        <time>2017-10-29T12:39:05Z</time>
      </trkpt>
      <trkpt lat="43.83593" lon="7.06075">
        <ele>831.28</ele>
        <time>2017-10-29T12:39:11Z</time>
      </trkpt>
      <trkpt lat="43.83599" lon="7.06051">
        <ele>831.16</ele>
        <time>2017-10-29T12:39:17Z</time>
      </trkpt>
      <trkpt lat="43.836" lon="7.06023">
        <ele>830.85</ele>
        <time>2017-10-29T12:39:24Z</time>
      </trkpt>
      <trkpt lat="43.836" lon="7.05995">
        <ele>830.37</ele>
        <time>2017-10-29T12:39:31Z</time>
      </trkpt>
      <trkpt lat="43.83599" lon="7.05968">
        <ele>829.97</ele>
        <time>2017-10-29T12:39:37Z</time>
      </trkpt>
      <trkpt lat="43.83594" lon="7.0594">
        <ele>829.57</ele>
        <time>2017-10-29T12:39:43Z</time>
      </trkpt>
      <trkpt lat="43.83589" lon="7.05914">
        <ele>829.42</ele>
        <time>2017-10-29T12:39:49Z</time>
      </trkpt>
      <trkpt lat="43.83588" lon="7.05885">
        <ele>829.59</ele>
        <time>2017-10-29T12:39:55Z</time>
      </trkpt>
      <trkpt lat="43.83586" lon="7.0586">
        <ele>829.57</ele>
        <time>2017-10-29T12:40:00Z</time>
      </trkpt>
      <trkpt lat="43.83583" lon="7.05832">
        <ele>829.1</ele>
        <time>2017-10-29T12:40:06Z</time>
      </trkpt>
      <trkpt lat="43.83581" lon="7.05802">
        <ele>828.53</ele>
        <time>2017-10-29T12:40:12Z</time>
      </trkpt>
      <trkpt lat="43.83578" lon="7.05775">
        <ele>827.91</ele>
        <time>2017-10-29T12:40:17Z</time>
      </trkpt>
      <trkpt lat="43.83577" lon="7.05749">
        <ele>827.64</ele>
        <time>2017-10-29T12:40:22Z</time>
      </trkpt>
      <trkpt lat="43.83578" lon="7.05722">
        <ele>827.58</ele>
        <time>2017-10-29T12:40:27Z</time>
      </trkpt>
      <trkpt lat="43.8358" lon="7.05696">
        <ele>827.54</ele>
        <time>2017-10-29T12:40:32Z</time>
      </trkpt>
      <trkpt lat="43.83581" lon="7.05669">
        <ele>827.39</ele>
        <time>2017-10-29T12:40:37Z</time>
      </trkpt>
      <trkpt lat="43.83582" lon="7.05642">
        <ele>827.32</ele>
        <time>2017-10-29T12:40:42Z</time>
      </trkpt>
      <trkpt lat="43.83584" lon="7.05613">
        <ele>827.5</ele>
        <time>2017-10-29T12:40:48Z</time>
      </trkpt>
      <trkpt lat="43.83585" lon="7.05584">
        <ele>827.72</ele>
        <time>2017-10-29T12:40:54Z</time>
      </trkpt>
      <trkpt lat="43.83587" lon="7.05554">
        <ele>827.79</ele>
        <time>2017-10-29T12:41:00Z</time>
      </trkpt>
      <trkpt lat="43.83589" lon="7.05524">
        <ele>827.59</ele>
        <time>2017-10-29T12:41:06Z</time>
      </trkpt>
      <trkpt lat="43.8359" lon="7.05496">
        <ele>826.77</ele>
        <time>2017-10-29T12:41:11Z</time>
      </trkpt>
      <trkpt lat="43.83592" lon="7.05467">
        <ele>826.46</ele>
        <time>2017-10-29T12:41:17Z</time>
      </trkpt>
      <trkpt lat="43.83594" lon="7.05439">
        <ele>826.54</ele>
        <time>2017-10-29T12:41:22Z</time>
      </trkpt>
      <trkpt lat="43.83596" lon="7.05409">
        <ele>827.27</ele>
        <time>2017-10-29T12:41:27Z</time>
      </trkpt>
      <trkpt lat="43.83597" lon="7.05383">
        <ele>827.49</ele>
        <time>2017-10-29T12:41:32Z</time>
      </trkpt>
      <trkpt lat="43.83597" lon="7.05356">
        <ele>828.34</ele>
        <time>2017-10-29T12:41:37Z</time>
      </trkpt>
      <trkpt lat="43.83594" lon="7.05327">
        <ele>829.26</ele>
        <time>2017-10-29T12:41:43Z</time>
      </trkpt>
      <trkpt lat="43.83595" lon="7.05301">
        <ele>829.51</ele>
        <time>2017-10-29T12:41:48Z</time>
      </trkpt>
      <trkpt lat="43.836" lon="7.05275">
        <ele>829.49</ele>
        <time>2017-10-29T12:41:53Z</time>
      </trkpt>
      <trkpt lat="43.83602" lon="7.0525">
        <ele>829.04</ele>
        <time>2017-10-29T12:41:58Z</time>
      </trkpt>
      <trkpt lat="43.83603" lon="7.05223">
        <ele>828.41</ele>
        <time>2017-10-29T12:42:03Z</time>
      </trkpt>
      <trkpt lat="43.83604" lon="7.05198">
        <ele>828.36</ele>
        <time>2017-10-29T12:42:08Z</time>
      </trkpt>
      <trkpt lat="43.83607" lon="7.05173">
        <ele>828.47</ele>
        <time>2017-10-29T12:42:13Z</time>
      </trkpt>
      <trkpt lat="43.83609" lon="7.05147">
        <ele>828.81</ele>
        <time>2017-10-29T12:42:18Z</time>
      </trkpt>
      <trkpt lat="43.83611" lon="7.05119">
        <ele>829.34</ele>
        <time>2017-10-29T12:42:23Z</time>
      </trkpt>
      <trkpt lat="43.83612" lon="7.05093">
        <ele>830.67</ele>
        <time>2017-10-29T12:42:28Z</time>
      </trkpt>
      <trkpt lat="43.83612" lon="7.05067">
        <ele>831.48</ele>
        <time>2017-10-29T12:42:33Z</time>
      </trkpt>
      <trkpt lat="43.83615" lon="7.0504">
        <ele>831.72</ele>
        <time>2017-10-29T12:42:38Z</time>
      </trkpt>
      <trkpt lat="43.83618" lon="7.05015">
        <ele>831.58</ele>
        <time>2017-10-29T12:42:43Z</time>
      </trkpt>
      <trkpt lat="43.8362" lon="7.04988">
        <ele>831.45</ele>
        <time>2017-10-29T12:42:49Z</time>
      </trkpt>
      <trkpt lat="43.83626" lon="7.04962">
        <ele>831.34</ele>
        <time>2017-10-29T12:42:56Z</time>
      </trkpt>
      <trkpt lat="43.83629" lon="7.04934">
        <ele>831.39</ele>
        <time>2017-10-29T12:43:03Z</time>
      </trkpt>
      <trkpt lat="43.83632" lon="7.04908">
        <ele>831.2</ele>
        <time>2017-10-29T12:43:09Z</time>
      </trkpt>
      <trkpt lat="43.83633" lon="7.04883">
        <ele>830.77</ele>
        <time>2017-10-29T12:43:15Z</time>
      </trkpt>
      <trkpt lat="43.8364" lon="7.04858">
        <ele>830.48</ele>
        <time>2017-10-29T12:43:22Z</time>
      </trkpt>
      <trkpt lat="43.83649" lon="7.04836">
        <ele>828.87</ele>
        <time>2017-10-29T12:44:30Z</time>
      </trkpt>
      <trkpt lat="43.83658" lon="7.04811">
        <ele>828.62</ele>
        <time>2017-10-29T12:44:39Z</time>
      </trkpt>
      <trkpt lat="43.83662" lon="7.04784">
        <ele>828.4</ele>
        <time>2017-10-29T12:44:47Z</time>
      </trkpt>
      <trkpt lat="43.83666" lon="7.04756">
        <ele>828.02</ele>
        <time>2017-10-29T12:44:55Z</time>
      </trkpt>
      <trkpt lat="43.83662" lon="7.0473">
        <ele>827.95</ele>
        <time>2017-10-29T12:45:02Z</time>
      </trkpt>
      <trkpt lat="43.83652" lon="7.04705">
        <ele>828.02</ele>
        <time>2017-10-29T12:45:09Z</time>
      </trkpt>
      <trkpt lat="43.83656" lon="7.04679">
        <ele>828.98</ele>
        <time>2017-10-29T12:45:30Z</time>
      </trkpt>
      <trkpt lat="43.83661" lon="7.04653">
        <ele>829.04</ele>
        <time>2017-10-29T12:45:36Z</time>
      </trkpt>
      <trkpt lat="43.83669" lon="7.04627">
        <ele>828.99</ele>
        <time>2017-10-29T12:45:42Z</time>
      </trkpt>
      <trkpt lat="43.83677" lon="7.04601">
        <ele>828.86</ele>
        <time>2017-10-29T12:45:48Z</time>
      </trkpt>
      <trkpt lat="43.83682" lon="7.04572">
        <ele>828.76</ele>
        <time>2017-10-29T12:45:54Z</time>
      </trkpt>
      <trkpt lat="43.83684" lon="7.04544">
        <ele>828.55</ele>
        <time>2017-10-29T12:46:00Z</time>
      </trkpt>
      <trkpt lat="43.83686" lon="7.04515">
        <ele>828.35</ele>
        <time>2017-10-29T12:46:06Z</time>
      </trkpt>
      <trkpt lat="43.83686" lon="7.0449">
        <ele>828.32</ele>
        <time>2017-10-29T12:46:11Z</time>
      </trkpt>
      <trkpt lat="43.83686" lon="7.04464">
        <ele>828.07</ele>
        <time>2017-10-29T12:46:16Z</time>
      </trkpt>
      <trkpt lat="43.83687" lon="7.04437">
        <ele>827.83</ele>
        <time>2017-10-29T12:46:20Z</time>
      </trkpt>
      <trkpt lat="43.83683" lon="7.04412">
        <ele>827.54</ele>
        <time>2017-10-29T12:46:24Z</time>
      </trkpt>
      <trkpt lat="43.83683" lon="7.04381">
        <ele>826.68</ele>
        <time>2017-10-29T12:46:29Z</time>
      </trkpt>
      <trkpt lat="43.83683" lon="7.04352">
        <ele>826.3</ele>
        <time>2017-10-29T12:46:34Z</time>
      </trkpt>
      <trkpt lat="43.83685" lon="7.04323">
        <ele>826.52</ele>
        <time>2017-10-29T12:46:39Z</time>
      </trkpt>
      <trkpt lat="43.83687" lon="7.04294">
        <ele>829.27</ele>
        <time>2017-10-29T12:46:44Z</time>
      </trkpt>
      <trkpt lat="43.83694" lon="7.0427">
        <ele>829.96</ele>
        <time>2017-10-29T12:46:49Z</time>
      </trkpt>
      <trkpt lat="43.83697" lon="7.0424">
        <ele>830.99</ele>
        <time>2017-10-29T12:46:55Z</time>
      </trkpt>
      <trkpt lat="43.83697" lon="7.04212">
        <ele>831.23</ele>
        <time>2017-10-29T12:47:00Z</time>
      </trkpt>
      <trkpt lat="43.83699" lon="7.04186">
        <ele>830.26</ele>
        <time>2017-10-29T12:47:05Z</time>
      </trkpt>
      <trkpt lat="43.83703" lon="7.0416">
        <ele>830.04</ele>
        <time>2017-10-29T12:47:10Z</time>
      </trkpt>
      <trkpt lat="43.83706" lon="7.04131">
        <ele>830.19</ele>
        <time>2017-10-29T12:47:15Z</time>
      </trkpt>
      <trkpt lat="43.83708" lon="7.04102">
        <ele>830.52</ele>
        <time>2017-10-29T12:47:21Z</time>
      </trkpt>
      <trkpt lat="43.83709" lon="7.04075">
        <ele>830.64</ele>
        <time>2017-10-29T12:47:26Z</time>
      </trkpt>
      <trkpt lat="43.83711" lon="7.0405">
        <ele>830.82</ele>
        <time>2017-10-29T12:47:31Z</time>
      </trkpt>
      <trkpt lat="43.83712" lon="7.04024">
        <ele>831.32</ele>
        <time>2017-10-29T12:47:36Z</time>
      </trkpt>
      <trkpt lat="43.83714" lon="7.03995">
        <ele>831.3</ele>
        <time>2017-10-29T12:47:42Z</time>
      </trkpt>
      <trkpt lat="43.83715" lon="7.03966">
        <ele>830.63</ele>
        <time>2017-10-29T12:47:48Z</time>
      </trkpt>
      <trkpt lat="43.83714" lon="7.03937">
        <ele>829.97</ele>
        <time>2017-10-29T12:47:53Z</time>
      </trkpt>
      <trkpt lat="43.83715" lon="7.03912">
        <ele>830.1</ele>
        <time>2017-10-29T12:47:57Z</time>
      </trkpt>
      <trkpt lat="43.83718" lon="7.03882">
        <ele>831</ele>
        <time>2017-10-29T12:48:02Z</time>
      </trkpt>
      <trkpt lat="43.83719" lon="7.03855">
        <ele>832.18</ele>
        <time>2017-10-29T12:48:07Z</time>
      </trkpt>
      <trkpt lat="43.83726" lon="7.03829">
        <ele>832.55</ele>
        <time>2017-10-29T12:48:12Z</time>
      </trkpt>
      <trkpt lat="43.83728" lon="7.03802">
        <ele>832.63</ele>
        <time>2017-10-29T12:48:17Z</time>
      </trkpt>
      <trkpt lat="43.83731" lon="7.03772">
        <ele>832.57</ele>
        <time>2017-10-29T12:48:22Z</time>
      </trkpt>
      <trkpt lat="43.83732" lon="7.03742">
        <ele>832.86</ele>
        <time>2017-10-29T12:48:27Z</time>
      </trkpt>
      <trkpt lat="43.83732" lon="7.03713">
        <ele>831.7</ele>
        <time>2017-10-29T12:48:32Z</time>
      </trkpt>
      <trkpt lat="43.83729" lon="7.03683">
        <ele>828.78</ele>
        <time>2017-10-29T12:48:37Z</time>
      </trkpt>
      <trkpt lat="43.83725" lon="7.03657">
        <ele>827.83</ele>
        <time>2017-10-29T12:48:42Z</time>
      </trkpt>
      <trkpt lat="43.83721" lon="7.03631">
        <ele>827.33</ele>
        <time>2017-10-29T12:48:47Z</time>
      </trkpt>
      <trkpt lat="43.83715" lon="7.03603">
        <ele>827.19</ele>
        <time>2017-10-29T12:48:53Z</time>
      </trkpt>
      <trkpt lat="43.83714" lon="7.03577">
        <ele>827.08</ele>
        <time>2017-10-29T12:48:58Z</time>
      </trkpt>
      <trkpt lat="43.83723" lon="7.03554">
        <ele>827.02</ele>
        <time>2017-10-29T12:49:03Z</time>
      </trkpt>
      <trkpt lat="43.83728" lon="7.0353">
        <ele>827.07</ele>
        <time>2017-10-29T12:49:08Z</time>
      </trkpt>
      <trkpt lat="43.83731" lon="7.03502">
        <ele>827.08</ele>
        <time>2017-10-29T12:49:13Z</time>
      </trkpt>
      <trkpt lat="43.83732" lon="7.03474">
        <ele>826.7</ele>
        <time>2017-10-29T12:49:18Z</time>
      </trkpt>
      <trkpt lat="43.83732" lon="7.03445">
        <ele>826.2</ele>
        <time>2017-10-29T12:49:23Z</time>
      </trkpt>
      <trkpt lat="43.83732" lon="7.03415">
        <ele>827.34</ele>
        <time>2017-10-29T12:49:28Z</time>
      </trkpt>
      <trkpt lat="43.83728" lon="7.03388">
        <ele>827.35</ele>
        <time>2017-10-29T12:49:34Z</time>
      </trkpt>
      <trkpt lat="43.83721" lon="7.0336">
        <ele>827.33</ele>
        <time>2017-10-29T12:49:39Z</time>
      </trkpt>
      <trkpt lat="43.83719" lon="7.03334">
        <ele>827.39</ele>
        <time>2017-10-29T12:49:44Z</time>
      </trkpt>
      <trkpt lat="43.8371" lon="7.03309">
        <ele>827.27</ele>
        <time>2017-10-29T12:49:49Z</time>
      </trkpt>
      <trkpt lat="43.83701" lon="7.03283">
        <ele>827.29</ele>
        <time>2017-10-29T12:49:55Z</time>
      </trkpt>
      <trkpt lat="43.83695" lon="7.03254">
        <ele>827.76</ele>
        <time>2017-10-29T12:50:01Z</time>
      </trkpt>
      <trkpt lat="43.83701" lon="7.03227">
        <ele>828.27</ele>
        <time>2017-10-29T12:50:07Z</time>
      </trkpt>
      <trkpt lat="43.83707" lon="7.03203">
        <ele>828.61</ele>
        <time>2017-10-29T12:50:12Z</time>
      </trkpt>
      <trkpt lat="43.83718" lon="7.03182">
        <ele>830.05</ele>
        <time>2017-10-29T12:50:17Z</time>
      </trkpt>
      <trkpt lat="43.83737" lon="7.03167">
        <ele>832.38</ele>
        <time>2017-10-29T12:50:23Z</time>
      </trkpt>
      <trkpt lat="43.83752" lon="7.03145">
        <ele>831.54</ele>
        <time>2017-10-29T12:50:28Z</time>
      </trkpt>
      <trkpt lat="43.83756" lon="7.03119">
        <ele>830.25</ele>
        <time>2017-10-29T12:50:33Z</time>
      </trkpt>
      <trkpt lat="43.83755" lon="7.03091">
        <ele>829.46</ele>
        <time>2017-10-29T12:50:38Z</time>
      </trkpt>
      <trkpt lat="43.8375" lon="7.03066">
        <ele>829.02</ele>
        <time>2017-10-29T12:50:43Z</time>
      </trkpt>
      <trkpt lat="43.8375" lon="7.0304">
        <ele>828.82</ele>
        <time>2017-10-29T12:50:48Z</time>
      </trkpt>
      <trkpt lat="43.83749" lon="7.03015">
        <ele>828.66</ele>
        <time>2017-10-29T12:52:05Z</time>
      </trkpt>
      <trkpt lat="43.83747" lon="7.0299">
        <ele>828.21</ele>
        <time>2017-10-29T12:53:56Z</time>
      </trkpt>
      <trkpt lat="43.83754" lon="7.02965">
        <ele>828.11</ele>
        <time>2017-10-29T12:54:04Z</time>
      </trkpt>
      <trkpt lat="43.83769" lon="7.02943">
        <ele>828.56</ele>
        <time>2017-10-29T12:54:10Z</time>
      </trkpt>
      <trkpt lat="43.83778" lon="7.02916">
        <ele>829.19</ele>
        <time>2017-10-29T12:54:17Z</time>
      </trkpt>
      <trkpt lat="43.8378" lon="7.02887">
        <ele>829.28</ele>
        <time>2017-10-29T12:54:23Z</time>
      </trkpt>
      <trkpt lat="43.8378" lon="7.02861">
        <ele>829.05</ele>
        <time>2017-10-29T12:54:29Z</time>
      </trkpt>
      <trkpt lat="43.83775" lon="7.02832">
        <ele>828.62</ele>
        <time>2017-10-29T12:54:36Z</time>
      </trkpt>
      <trkpt lat="43.8376" lon="7.02816">
        <ele>828.83</ele>
        <time>2017-10-29T12:54:41Z</time>
      </trkpt>
      <trkpt lat="43.83748" lon="7.02796">
        <ele>829.57</ele>
        <time>2017-10-29T12:54:47Z</time>
      </trkpt>
      <trkpt lat="43.83746" lon="7.02769">
        <ele>829.84</ele>
        <time>2017-10-29T12:54:53Z</time>
      </trkpt>
      <trkpt lat="43.83753" lon="7.02741">
        <ele>830.04</ele>
        <time>2017-10-29T12:54:59Z</time>
      </trkpt>
      <trkpt lat="43.8376" lon="7.02718">
        <ele>830.39</ele>
        <time>2017-10-29T12:55:04Z</time>
      </trkpt>
      <trkpt lat="43.83769" lon="7.02695">
        <ele>830.94</ele>
        <time>2017-10-29T12:55:09Z</time>
      </trkpt>
      <trkpt lat="43.83781" lon="7.02676">
        <ele>831.74</ele>
        <time>2017-10-29T12:55:14Z</time>
      </trkpt>
      <trkpt lat="43.83794" lon="7.02657">
        <ele>832.51</ele>
        <time>2017-10-29T12:55:19Z</time>
      </trkpt>
      <trkpt lat="43.83808" lon="7.02635">
        <ele>833.35</ele>
        <time>2017-10-29T12:55:25Z</time>
      </trkpt>
      <trkpt lat="43.83823" lon="7.02619">
        <ele>835.11</ele>
        <time>2017-10-29T12:55:30Z</time>
      </trkpt>
      <trkpt lat="43.83838" lon="7.02604">
        <ele>836.4</ele>
        <time>2017-10-29T12:55:35Z</time>
      </trkpt>
      <trkpt lat="43.83846" lon="7.02581">
        <ele>835.92</ele>
        <time>2017-10-29T12:55:39Z</time>
      </trkpt>
      <trkpt lat="43.83852" lon="7.02555">
        <ele>835.01</ele>
        <time>2017-10-29T12:55:44Z</time>
      </trkpt>
      <trkpt lat="43.8386" lon="7.02527">
        <ele>834.74</ele>
        <time>2017-10-29T12:55:49Z</time>
      </trkpt>
      <trkpt lat="43.83864" lon="7.02499">
        <ele>835.06</ele>
        <time>2017-10-29T12:55:55Z</time>
      </trkpt>
      <trkpt lat="43.83852" lon="7.02474">
        <ele>832.8</ele>
        <time>2017-10-29T12:56:01Z</time>
      </trkpt>
      <trkpt lat="43.83844" lon="7.02446">
        <ele>830.38</ele>
        <time>2017-10-29T12:56:06Z</time>
      </trkpt>
      <trkpt lat="43.8384" lon="7.02421">
        <ele>830.11</ele>
        <time>2017-10-29T12:56:11Z</time>
      </trkpt>
      <trkpt lat="43.83842" lon="7.02392">
        <ele>830.6</ele>
        <time>2017-10-29T12:56:16Z</time>
      </trkpt>
      <trkpt lat="43.83843" lon="7.02364">
        <ele>831</ele>
        <time>2017-10-29T12:56:21Z</time>
      </trkpt>
      <trkpt lat="43.83852" lon="7.02341">
        <ele>831.59</ele>
        <time>2017-10-29T12:56:26Z</time>
      </trkpt>
      <trkpt lat="43.83862" lon="7.02319">
        <ele>831.76</ele>
        <time>2017-10-29T12:56:31Z</time>
      </trkpt>
      <trkpt lat="43.83867" lon="7.02295">
        <ele>832.19</ele>
        <time>2017-10-29T12:56:36Z</time>
      </trkpt>
      <trkpt lat="43.83869" lon="7.02267">
        <ele>831.96</ele>
        <time>2017-10-29T12:56:41Z</time>
      </trkpt>
      <trkpt lat="43.83872" lon="7.02238">
        <ele>829.52</ele>
        <time>2017-10-29T12:56:47Z</time>
      </trkpt>
      <trkpt lat="43.83873" lon="7.02213">
        <ele>827.27</ele>
        <time>2017-10-29T12:56:52Z</time>
      </trkpt>
      <trkpt lat="43.83877" lon="7.02182">
        <ele>827.55</ele>
        <time>2017-10-29T12:56:57Z</time>
      </trkpt>
      <trkpt lat="43.83881" lon="7.02153">
        <ele>830.2</ele>
        <time>2017-10-29T12:57:02Z</time>
      </trkpt>
      <trkpt lat="43.83892" lon="7.02129">
        <ele>832.52</ele>
        <time>2017-10-29T12:57:07Z</time>
      </trkpt>
      <trkpt lat="43.83899" lon="7.02103">
        <ele>833.02</ele>
        <time>2017-10-29T12:57:12Z</time>
      </trkpt>
      <trkpt lat="43.83904" lon="7.02074">
        <ele>832.45</ele>
        <time>2017-10-29T12:57:17Z</time>
      </trkpt>
      <trkpt lat="43.83903" lon="7.02048">
        <ele>829.97</ele>
        <time>2017-10-29T12:57:22Z</time>
      </trkpt>
      <trkpt lat="43.839" lon="7.02022">
        <ele>829.48</ele>
        <time>2017-10-29T12:57:27Z</time>
      </trkpt>
      <trkpt lat="43.83899" lon="7.01996">
        <ele>828.97</ele>
        <time>2017-10-29T12:57:32Z</time>
      </trkpt>
      <trkpt lat="43.83903" lon="7.01968">
        <ele>827.37</ele>
        <time>2017-10-29T12:57:37Z</time>
      </trkpt>
      <trkpt lat="43.83912" lon="7.01944">
        <ele>827.27</ele>
        <time>2017-10-29T12:57:42Z</time>
      </trkpt>
      <trkpt lat="43.8392" lon="7.01918">
        <ele>828.56</ele>
        <time>2017-10-29T12:57:47Z</time>
      </trkpt>
      <trkpt lat="43.83929" lon="7.01893">
        <ele>829.56</ele>
        <time>2017-10-29T12:57:52Z</time>
      </trkpt>
      <trkpt lat="43.83936" lon="7.01865">
        <ele>830.35</ele>
        <time>2017-10-29T12:57:58Z</time>
      </trkpt>
      <trkpt lat="43.8394" lon="7.01838">
        <ele>831.22</ele>
        <time>2017-10-29T12:58:03Z</time>
      </trkpt>
      <trkpt lat="43.83946" lon="7.01807">
        <ele>832.18</ele>
        <time>2017-10-29T12:58:09Z</time>
      </trkpt>
      <trkpt lat="43.83949" lon="7.01782">
        <ele>832.82</ele>
        <time>2017-10-29T12:58:14Z</time>
      </trkpt>
      <trkpt lat="43.83949" lon="7.01756">
        <ele>832.24</ele>
        <time>2017-10-29T12:58:19Z</time>
      </trkpt>
      <trkpt lat="43.83943" lon="7.01728">
        <ele>831.79</ele>
        <time>2017-10-29T12:58:25Z</time>
      </trkpt>
      <trkpt lat="43.83946" lon="7.01701">
        <ele>831.72</ele>
        <time>2017-10-29T12:58:30Z</time>
      </trkpt>
      <trkpt lat="43.83951" lon="7.01677">
        <ele>831.14</ele>
        <time>2017-10-29T12:58:35Z</time>
      </trkpt>
      <trkpt lat="43.83957" lon="7.01649">
        <ele>831.1</ele>
        <time>2017-10-29T12:58:40Z</time>
      </trkpt>
      <trkpt lat="43.83963" lon="7.01621">
        <ele>831.76</ele>
        <time>2017-10-29T12:58:45Z</time>
      </trkpt>
      <trkpt lat="43.8397" lon="7.01593">
        <ele>831.09</ele>
        <time>2017-10-29T12:58:50Z</time>
      </trkpt>
      <trkpt lat="43.83977" lon="7.01568">
        <ele>829.08</ele>
        <time>2017-10-29T12:58:54Z</time>
      </trkpt>
      <trkpt lat="43.83986" lon="7.01546">
        <ele>828.2</ele>
        <time>2017-10-29T12:58:58Z</time>
      </trkpt>
      <trkpt lat="43.83994" lon="7.01518">
        <ele>829.19</ele>
        <time>2017-10-29T12:59:03Z</time>
      </trkpt>
      <trkpt lat="43.84002" lon="7.01494">
        <ele>830.95</ele>
        <time>2017-10-29T12:59:07Z</time>
      </trkpt>
      <trkpt lat="43.84007" lon="7.01467">
        <ele>832.78</ele>
        <time>2017-10-29T12:59:12Z</time>
      </trkpt>
      <trkpt lat="43.84008" lon="7.01436">
        <ele>832.39</ele>
        <time>2017-10-29T12:59:17Z</time>
      </trkpt>
      <trkpt lat="43.8401" lon="7.0141">
        <ele>831.91</ele>
        <time>2017-10-29T12:59:21Z</time>
      </trkpt>
      <trkpt lat="43.84014" lon="7.0138">
        <ele>829.9</ele>
        <time>2017-10-29T12:59:26Z</time>
      </trkpt>
      <trkpt lat="43.84018" lon="7.01353">
        <ele>828.45</ele>
        <time>2017-10-29T12:59:30Z</time>
      </trkpt>
      <trkpt lat="43.84024" lon="7.01324">
        <ele>828.66</ele>
        <time>2017-10-29T12:59:35Z</time>
      </trkpt>
      <trkpt lat="43.8403" lon="7.01296">
        <ele>829.52</ele>
        <time>2017-10-29T12:59:40Z</time>
      </trkpt>
      <trkpt lat="43.84033" lon="7.0127">
        <ele>829.54</ele>
        <time>2017-10-29T12:59:44Z</time>
      </trkpt>
      <trkpt lat="43.84035" lon="7.01244">
        <ele>828.89</ele>
        <time>2017-10-29T12:59:48Z</time>
      </trkpt>
      <trkpt lat="43.84039" lon="7.01218">
        <ele>829.8</ele>
        <time>2017-10-29T12:59:52Z</time>
      </trkpt>
      <trkpt lat="43.8404" lon="7.01192">
        <ele>828.72</ele>
        <time>2017-10-29T12:59:57Z</time>
      </trkpt>
      <trkpt lat="43.8404" lon="7.01166">
        <ele>828.48</ele>
        <time>2017-10-29T13:00:01Z</time>
      </trkpt>
      <trkpt lat="43.84041" lon="7.0114">
        <ele>828.49</ele>
        <time>2017-10-29T13:00:06Z</time>
      </trkpt>
      <trkpt lat="43.84039" lon="7.01111">
        <ele>828.6</ele>
        <time>2017-10-29T13:00:11Z</time>
      </trkpt>
      <trkpt lat="43.84039" lon="7.01086">
        <ele>828.2</ele>
        <time>2017-10-29T13:00:16Z</time>
      </trkpt>
      <trkpt lat="43.84038" lon="7.01059">
        <ele>827.22</ele>
        <time>2017-10-29T13:00:21Z</time>
      </trkpt>
      <trkpt lat="43.84035" lon="7.01033">
        <ele>827.12</ele>
        <time>2017-10-29T13:00:26Z</time>
      </trkpt>
      <trkpt lat="43.84033" lon="7.01008">
        <ele>827.53</ele>
        <time>2017-10-29T13:00:30Z</time>
      </trkpt>
      <trkpt lat="43.84034" lon="7.00982">
        <ele>828.18</ele>
        <time>2017-10-29T13:00:35Z</time>
      </trkpt>
      <trkpt lat="43.84035" lon="7.00955">
        <ele>828.43</ele>
        <time>2017-10-29T13:00:41Z</time>
      </trkpt>
      <trkpt lat="43.84033" lon="7.00925">
        <ele>828.44</ele>
        <time>2017-10-29T13:00:46Z</time>
      </trkpt>
      <trkpt lat="43.84032" lon="7.00896">
        <ele>828.61</ele>
        <time>2017-10-29T13:00:51Z</time>
      </trkpt>
      <trkpt lat="43.8403" lon="7.00867">
        <ele>829.42</ele>
        <time>2017-10-29T13:00:56Z</time>
      </trkpt>
      <trkpt lat="43.84031" lon="7.00838">
        <ele>830.59</ele>
        <time>2017-10-29T13:01:01Z</time>
      </trkpt>
      <trkpt lat="43.84031" lon="7.00809">
        <ele>829.92</ele>
        <time>2017-10-29T13:01:06Z</time>
      </trkpt>
      <trkpt lat="43.84032" lon="7.00782">
        <ele>830.27</ele>
        <time>2017-10-29T13:01:10Z</time>
      </trkpt>
      <trkpt lat="43.84031" lon="7.00754">
        <ele>831.13</ele>
        <time>2017-10-29T13:01:15Z</time>
      </trkpt>
      <trkpt lat="43.8403" lon="7.00727">
        <ele>831.18</ele>
        <time>2017-10-29T13:01:20Z</time>
      </trkpt>
      <trkpt lat="43.84027" lon="7.00698">
        <ele>831.23</ele>
        <time>2017-10-29T13:01:26Z</time>
      </trkpt>
      <trkpt lat="43.84024" lon="7.00672">
        <ele>831.32</ele>
        <time>2017-10-29T13:01:32Z</time>
      </trkpt>
      <trkpt lat="43.84021" lon="7.00645">
        <ele>827.81</ele>
        <time>2017-10-29T13:03:29Z</time>
      </trkpt>
      <trkpt lat="43.84015" lon="7.00619">
        <ele>827.89</ele>
        <time>2017-10-29T13:03:36Z</time>
      </trkpt>
      <trkpt lat="43.84008" lon="7.00595">
        <ele>828.22</ele>
        <time>2017-10-29T13:03:42Z</time>
      </trkpt>
      <trkpt lat="43.84007" lon="7.00569">
        <ele>828.82</ele>
        <time>2017-10-29T13:03:48Z</time>
      </trkpt>
      <trkpt lat="43.84014" lon="7.00542">
        <ele>829.48</ele>
        <time>2017-10-29T13:03:54Z</time>
      </trkpt>
      <trkpt lat="43.8402" lon="7.00518">
        <ele>830.25</ele>
        <time>2017-10-29T13:04:00Z</time>
      </trkpt>
      <trkpt lat="43.84028" lon="7.00491">
        <ele>830.73</ele>
        <time>2017-10-29T13:04:06Z</time>
      </trkpt>
      <trkpt lat="43.84034" lon="7.00465">
        <ele>831.04</ele>
        <time>2017-10-29T13:04:12Z</time>
      </trkpt>
      <trkpt lat="43.84039" lon="7.00437">
        <ele>831.09</ele>
        <time>2017-10-29T13:04:18Z</time>
      </trkpt>
      <trkpt lat="43.84041" lon="7.00411">
        <ele>831.11</ele>
        <time>2017-10-29T13:04:23Z</time>
      </trkpt>
      <trkpt lat="43.84041" lon="7.00383">
        <ele>831.11</ele>
        <time>2017-10-29T13:04:29Z</time>
      </trkpt>
      <trkpt lat="43.84035" lon="7.00359">
        <ele>831.4</ele>
        <time>2017-10-29T13:04:34Z</time>
      </trkpt>
      <trkpt lat="43.84031" lon="7.0033">
        <ele>831.82</ele>
        <time>2017-10-29T13:04:40Z</time>
      </trkpt>
      <trkpt lat="43.8403" lon="7.00302">
        <ele>832.19</ele>
        <time>2017-10-29T13:04:45Z</time>
      </trkpt>
      <trkpt lat="43.84033" lon="7.00277">
        <ele>834.83</ele>
        <time>2017-10-29T13:05:35Z</time>
      </trkpt>
      <trkpt lat="43.84035" lon="7.00252">
        <ele>834.47</ele>
        <time>2017-10-29T13:06:24Z</time>
      </trkpt>
      <trkpt lat="43.84039" lon="7.00227">
        <ele>831.86</ele>
        <time>2017-10-29T13:07:43Z</time>
      </trkpt>
      <trkpt lat="43.84043" lon="7.00203">
        <ele>832.11</ele>
        <time>2017-10-29T13:09:09Z</time>
      </trkpt>
      <trkpt lat="43.84045" lon="7.00177">
        <ele>833.11</ele>
        <time>2017-10-29T13:09:27Z</time>
      </trkpt>
      <trkpt lat="43.84045" lon="7.00151">
        <ele>833.51</ele>
        <time>2017-10-29T13:09:37Z</time>
      </trkpt>
      <trkpt lat="43.84055" lon="7.00127">
        <ele>833.79</ele>
        <time>2017-10-29T13:09:45Z</time>
      </trkpt>
      <trkpt lat="43.84064" lon="7.00105">
        <ele>834.37</ele>
        <time>2017-10-29T13:09:52Z</time>
      </trkpt>
      <trkpt lat="43.8407" lon="7.0008">
        <ele>834</ele>
        <time>2017-10-29T13:09:59Z</time>
      </trkpt>
      <trkpt lat="43.84077" lon="7.00053">
        <ele>833.57</ele>
        <time>2017-10-29T13:10:07Z</time>
      </trkpt>
      <trkpt lat="43.84088" lon="7.0003">
        <ele>834.23</ele>
        <time>2017-10-29T13:10:41Z</time>
      </trkpt>
      <trkpt lat="43.84095" lon="7.00005">
        <ele>834.37</ele>
        <time>2017-10-29T13:10:48Z</time>
      </trkpt>
      <trkpt lat="43.84105" lon="6.99982">
        <ele>835.42</ele>
        <time>2017-10-29T13:10:53Z</time>
      </trkpt>
      <trkpt lat="43.84119" lon="6.99959">
        <ele>836.59</ele>
        <time>2017-10-29T13:10:58Z</time>
      </trkpt>
      <trkpt lat="43.84131" lon="6.99936">
        <ele>835.22</ele>
        <time>2017-10-29T13:11:03Z</time>
      </trkpt>
      <trkpt lat="43.84141" lon="6.99913">
        <ele>835.19</ele>
        <time>2017-10-29T13:11:07Z</time>
      </trkpt>
      <trkpt lat="43.84148" lon="6.99888">
        <ele>836.98</ele>
        <time>2017-10-29T13:11:11Z</time>
      </trkpt>
      <trkpt lat="43.84157" lon="6.99865">
        <ele>837.87</ele>
        <time>2017-10-29T13:11:15Z</time>
      </trkpt>
      <trkpt lat="43.84168" lon="6.9984">
        <ele>838.34</ele>
        <time>2017-10-29T13:11:20Z</time>
      </trkpt>
      <trkpt lat="43.84174" lon="6.99813">
        <ele>838.29</ele>
        <time>2017-10-29T13:11:25Z</time>
      </trkpt>
      <trkpt lat="43.8418" lon="6.99787">
        <ele>838.33</ele>
        <time>2017-10-29T13:11:29Z</time>
      </trkpt>
      <trkpt lat="43.84192" lon="6.99762">
        <ele>838.55</ele>
        <time>2017-10-29T13:11:34Z</time>
      </trkpt>
      <trkpt lat="43.84201" lon="6.99735">
        <ele>839.96</ele>
        <time>2017-10-29T13:11:40Z</time>
      </trkpt>
      <trkpt lat="43.84211" lon="6.99714">
        <ele>837.62</ele>
        <time>2017-10-29T13:11:44Z</time>
      </trkpt>
      <trkpt lat="43.84222" lon="6.99692">
        <ele>835.71</ele>
        <time>2017-10-29T13:11:48Z</time>
      </trkpt>
      <trkpt lat="43.84231" lon="6.99667">
        <ele>835.05</ele>
        <time>2017-10-29T13:11:53Z</time>
      </trkpt>
      <trkpt lat="43.84239" lon="6.99642">
        <ele>835.02</ele>
        <time>2017-10-29T13:11:57Z</time>
      </trkpt>
      <trkpt lat="43.84246" lon="6.99619">
        <ele>835.64</ele>
        <time>2017-10-29T13:12:02Z</time>
      </trkpt>
      <trkpt lat="43.84251" lon="6.99595">
        <ele>835.8</ele>
        <time>2017-10-29T13:12:07Z</time>
      </trkpt>
      <trkpt lat="43.8426" lon="6.99569">
        <ele>835.85</ele>
        <time>2017-10-29T13:12:13Z</time>
      </trkpt>
      <trkpt lat="43.84268" lon="6.99546">
        <ele>836.13</ele>
        <time>2017-10-29T13:12:18Z</time>
      </trkpt>
      <trkpt lat="43.8427" lon="6.9952">
        <ele>836.67</ele>
        <time>2017-10-29T13:12:26Z</time>
      </trkpt>
      <trkpt lat="43.84277" lon="6.99496">
        <ele>837.29</ele>
        <time>2017-10-29T13:12:33Z</time>
      </trkpt>
      <trkpt lat="43.84282" lon="6.99471">
        <ele>837.75</ele>
        <time>2017-10-29T13:12:42Z</time>
      </trkpt>
      <trkpt lat="43.84285" lon="6.99446">
        <ele>837.58</ele>
        <time>2017-10-29T13:12:49Z</time>
      </trkpt>
      <trkpt lat="43.84297" lon="6.99425">
        <ele>837.51</ele>
        <time>2017-10-29T13:12:57Z</time>
      </trkpt>
      <trkpt lat="43.84312" lon="6.99408">
        <ele>838.26</ele>
        <time>2017-10-29T13:13:06Z</time>
      </trkpt>
      <trkpt lat="43.84328" lon="6.99392">
        <ele>838.8</ele>
        <time>2017-10-29T13:13:16Z</time>
      </trkpt>
      <trkpt lat="43.84333" lon="6.99368">
        <ele>838.9</ele>
        <time>2017-10-29T13:13:30Z</time>
      </trkpt>
      <trkpt lat="43.84347" lon="6.99349">
        <ele>839.78</ele>
        <time>2017-10-29T13:13:45Z</time>
      </trkpt>
      <trkpt lat="43.84365" lon="6.99342">
        <ele>842.58</ele>
        <time>2017-10-29T13:13:59Z</time>
      </trkpt>
      <trkpt lat="43.84383" lon="6.99342">
        <ele>844.33</ele>
        <time>2017-10-29T13:14:11Z</time>
      </trkpt>
      <trkpt lat="43.844" lon="6.99332">
        <ele>846.17</ele>
        <time>2017-10-29T13:14:24Z</time>
      </trkpt>
      <trkpt lat="43.844" lon="6.99306">
        <ele>847.26</ele>
        <time>2017-10-29T13:14:38Z</time>
      </trkpt>
      <trkpt lat="43.84397" lon="6.9928">
        <ele>847.9</ele>
        <time>2017-10-29T13:14:51Z</time>
      </trkpt>
      <trkpt lat="43.84406" lon="6.99256">
        <ele>849.66</ele>
        <time>2017-10-29T13:15:04Z</time>
      </trkpt>
      <trkpt lat="43.84418" lon="6.99238">
        <ele>851.27</ele>
        <time>2017-10-29T13:15:19Z</time>
      </trkpt>
      <trkpt lat="43.84436" lon="6.9925">
        <ele>858.03</ele>
        <time>2017-10-29T13:22:17Z</time>
      </trkpt>
      <trkpt lat="43.84446" lon="6.99271">
        <ele>858.85</ele>
        <time>2017-10-29T13:22:33Z</time>
      </trkpt>
      <trkpt lat="43.84452" lon="6.99297">
        <ele>858.75</ele>
        <time>2017-10-29T13:22:50Z</time>
      </trkpt>
      <trkpt lat="43.84456" lon="6.99324">
        <ele>859.68</ele>
        <time>2017-10-29T13:23:04Z</time>
      </trkpt>
      <trkpt lat="43.84469" lon="6.99342">
        <ele>860.41</ele>
        <time>2017-10-29T13:23:15Z</time>
      </trkpt>
      <trkpt lat="43.84486" lon="6.99333">
        <ele>861.1</ele>
        <time>2017-10-29T13:23:28Z</time>
      </trkpt>
      <trkpt lat="43.84502" lon="6.99346">
        <ele>864.33</ele>
        <time>2017-10-29T13:23:49Z</time>
      </trkpt>
      <trkpt lat="43.84507" lon="6.99371">
        <ele>865.49</ele>
        <time>2017-10-29T13:24:03Z</time>
      </trkpt>
      <trkpt lat="43.84524" lon="6.99385">
        <ele>866.37</ele>
        <time>2017-10-29T13:24:16Z</time>
      </trkpt>
      <trkpt lat="43.84543" lon="6.99385">
        <ele>867.04</ele>
        <time>2017-10-29T13:24:27Z</time>
      </trkpt>
      <trkpt lat="43.84561" lon="6.99381">
        <ele>868.77</ele>
        <time>2017-10-29T13:24:39Z</time>
      </trkpt>
      <trkpt lat="43.84573" lon="6.99362">
        <ele>870.12</ele>
        <time>2017-10-29T13:24:54Z</time>
      </trkpt>
      <trkpt lat="43.84583" lon="6.99341">
        <ele>870.7</ele>
        <time>2017-10-29T13:25:07Z</time>
      </trkpt>
      <trkpt lat="43.84585" lon="6.99366">
        <ele>878.56</ele>
        <time>2017-10-29T13:27:01Z</time>
      </trkpt>
      <trkpt lat="43.84587" lon="6.99391">
        <ele>880.32</ele>
        <time>2017-10-29T13:27:37Z</time>
      </trkpt>
      <trkpt lat="43.84596" lon="6.99413">
        <ele>883.67</ele>
        <time>2017-10-29T13:28:44Z</time>
      </trkpt>
      <trkpt lat="43.84601" lon="6.99437">
        <ele>888.9</ele>
        <time>2017-10-29T13:29:37Z</time>
      </trkpt>
      <trkpt lat="43.84609" lon="6.9946">
        <ele>896.08</ele>
        <time>2017-10-29T13:30:41Z</time>
      </trkpt>
      <trkpt lat="43.84611" lon="6.99485">
        <ele>898.05</ele>
        <time>2017-10-29T13:31:05Z</time>
      </trkpt>
      <trkpt lat="43.84613" lon="6.9951">
        <ele>899.73</ele>
        <time>2017-10-29T13:31:26Z</time>
      </trkpt>
      <trkpt lat="43.84618" lon="6.99537">
        <ele>903.1</ele>
        <time>2017-10-29T13:32:53Z</time>
      </trkpt>
      <trkpt lat="43.84617" lon="6.99562">
        <ele>904.3</ele>
        <time>2017-10-29T13:33:02Z</time>
      </trkpt>
      <trkpt lat="43.84619" lon="6.99589">
        <ele>905.5</ele>
        <time>2017-10-29T13:33:11Z</time>
      </trkpt>
      <trkpt lat="43.84625" lon="6.99614">
        <ele>906.86</ele>
        <time>2017-10-29T13:33:24Z</time>
      </trkpt>
      <trkpt lat="43.84627" lon="6.99639">
        <ele>907.35</ele>
        <time>2017-10-29T13:33:33Z</time>
      </trkpt>
      <trkpt lat="43.84629" lon="6.99665">
        <ele>908.48</ele>
        <time>2017-10-29T13:33:43Z</time>
      </trkpt>
      <trkpt lat="43.84631" lon="6.9969">
        <ele>909.08</ele>
        <time>2017-10-29T13:33:50Z</time>
      </trkpt>
      <trkpt lat="43.8463" lon="6.99718">
        <ele>909.6</ele>
        <time>2017-10-29T13:33:59Z</time>
      </trkpt>
      <trkpt lat="43.84626" lon="6.99746">
        <ele>909.83</ele>
        <time>2017-10-29T13:34:07Z</time>
      </trkpt>
      <trkpt lat="43.84626" lon="6.99773">
        <ele>908.97</ele>
        <time>2017-10-29T13:34:14Z</time>
      </trkpt>
      <trkpt lat="43.84612" lon="6.99789">
        <ele>906.17</ele>
        <time>2017-10-29T13:35:15Z</time>
      </trkpt>
      <trkpt lat="43.84594" lon="6.99786">
        <ele>901.6</ele>
        <time>2017-10-29T13:35:53Z</time>
      </trkpt>
      <trkpt lat="43.84576" lon="6.99783">
        <ele>893.11</ele>
        <time>2017-10-29T13:36:48Z</time>
      </trkpt>
      <trkpt lat="43.84558" lon="6.99773">
        <ele>887.72</ele>
        <time>2017-10-29T13:37:29Z</time>
      </trkpt>
      <trkpt lat="43.84541" lon="6.99763">
        <ele>878.08</ele>
        <time>2017-10-29T13:38:03Z</time>
      </trkpt>
      <trkpt lat="43.84523" lon="6.99762">
        <ele>873.14</ele>
        <time>2017-10-29T13:38:27Z</time>
      </trkpt>
      <trkpt lat="43.84503" lon="6.99763">
        <ele>871.1</ele>
        <time>2017-10-29T13:38:34Z</time>
      </trkpt>
      <trkpt lat="43.84487" lon="6.99771">
        <ele>867.88</ele>
        <time>2017-10-29T13:38:42Z</time>
      </trkpt>
      <trkpt lat="43.84479" lon="6.99796">
        <ele>842.19</ele>
        <time>2017-10-29T13:46:10Z</time>
      </trkpt>
      <trkpt lat="43.84464" lon="6.9981">
        <ele>842.24</ele>
        <time>2017-10-29T13:46:15Z</time>
      </trkpt>
      <trkpt lat="43.8445" lon="6.99828">
        <ele>840.71</ele>
        <time>2017-10-29T13:46:19Z</time>
      </trkpt>
      <trkpt lat="43.84442" lon="6.99855">
        <ele>839.85</ele>
        <time>2017-10-29T13:46:25Z</time>
      </trkpt>
      <trkpt lat="43.84438" lon="6.99881">
        <ele>837.62</ele>
        <time>2017-10-29T13:46:30Z</time>
      </trkpt>
      <trkpt lat="43.84429" lon="6.99907">
        <ele>832</ele>
        <time>2017-10-29T13:46:34Z</time>
      </trkpt>
      <trkpt lat="43.84421" lon="6.99929">
        <ele>827.9</ele>
        <time>2017-10-29T13:46:37Z</time>
      </trkpt>
      <trkpt lat="43.84412" lon="6.99955">
        <ele>824.63</ele>
        <time>2017-10-29T13:46:40Z</time>
      </trkpt>
      <trkpt lat="43.84403" lon="6.9998">
        <ele>824.28</ele>
        <time>2017-10-29T13:46:43Z</time>
      </trkpt>
      <trkpt lat="43.84396" lon="7.00004">
        <ele>824.38</ele>
        <time>2017-10-29T13:46:48Z</time>
      </trkpt>
      <trkpt lat="43.8439" lon="7.00028">
        <ele>823.95</ele>
        <time>2017-10-29T13:46:54Z</time>
      </trkpt>
      <trkpt lat="43.8438" lon="7.00051">
        <ele>823.28</ele>
        <time>2017-10-29T13:47:00Z</time>
      </trkpt>
      <trkpt lat="43.84375" lon="7.00078">
        <ele>822.16</ele>
        <time>2017-10-29T13:47:07Z</time>
      </trkpt>
      <trkpt lat="43.84368" lon="7.00103">
        <ele>818.24</ele>
        <time>2017-10-29T13:47:15Z</time>
      </trkpt>
      <trkpt lat="43.84365" lon="7.0013">
        <ele>812.43</ele>
        <time>2017-10-29T13:47:19Z</time>
      </trkpt>
      <trkpt lat="43.84359" lon="7.00156">
        <ele>807.53</ele>
        <time>2017-10-29T13:47:23Z</time>
      </trkpt>
      <trkpt lat="43.84349" lon="7.00183">
        <ele>806.3</ele>
        <time>2017-10-29T13:47:28Z</time>
      </trkpt>
      <trkpt lat="43.84349" lon="7.00211">
        <ele>805.94</ele>
        <time>2017-10-29T13:47:35Z</time>
      </trkpt>
      <trkpt lat="43.84347" lon="7.00242">
        <ele>805.35</ele>
        <time>2017-10-29T13:47:42Z</time>
      </trkpt>
      <trkpt lat="43.84345" lon="7.00267">
        <ele>804.21</ele>
        <time>2017-10-29T13:47:52Z</time>
      </trkpt>
      <trkpt lat="43.84344" lon="7.00295">
        <ele>800.23</ele>
        <time>2017-10-29T13:47:58Z</time>
      </trkpt>
      <trkpt lat="43.84339" lon="7.00321">
        <ele>796.02</ele>
        <time>2017-10-29T13:48:36Z</time>
      </trkpt>
      <trkpt lat="43.84335" lon="7.00348">
        <ele>795.15</ele>
        <time>2017-10-29T13:48:42Z</time>
      </trkpt>
      <trkpt lat="43.84323" lon="7.00373">
        <ele>794.11</ele>
        <time>2017-10-29T13:48:48Z</time>
      </trkpt>
      <trkpt lat="43.84316" lon="7.00398">
        <ele>793.5</ele>
        <time>2017-10-29T13:48:53Z</time>
      </trkpt>
      <trkpt lat="43.84311" lon="7.00425">
        <ele>792.53</ele>
        <time>2017-10-29T13:49:01Z</time>
      </trkpt>
      <trkpt lat="43.84308" lon="7.00453">
        <ele>791.92</ele>
        <time>2017-10-29T13:49:07Z</time>
      </trkpt>
      <trkpt lat="43.8431" lon="7.00483">
        <ele>791.23</ele>
        <time>2017-10-29T13:49:13Z</time>
      </trkpt>
      <trkpt lat="43.84312" lon="7.0051">
        <ele>789.47</ele>
        <time>2017-10-29T13:49:18Z</time>
      </trkpt>
      <trkpt lat="43.84315" lon="7.00541">
        <ele>787.87</ele>
        <time>2017-10-29T13:49:28Z</time>
      </trkpt>
      <trkpt lat="43.84319" lon="7.00567">
        <ele>787.31</ele>
        <time>2017-10-29T13:49:38Z</time>
      </trkpt>
      <trkpt lat="43.84317" lon="7.00594">
        <ele>786.55</ele>
        <time>2017-10-29T13:49:44Z</time>
      </trkpt>
      <trkpt lat="43.84312" lon="7.00621">
        <ele>785.44</ele>
        <time>2017-10-29T13:49:52Z</time>
      </trkpt>
      <trkpt lat="43.84297" lon="7.00638">
        <ele>784.49</ele>
        <time>2017-10-29T13:50:00Z</time>
      </trkpt>
      <trkpt lat="43.84284" lon="7.00657">
        <ele>783.66</ele>
        <time>2017-10-29T13:50:06Z</time>
      </trkpt>
      <trkpt lat="43.84282" lon="7.00682">
        <ele>782.58</ele>
        <time>2017-10-29T13:50:11Z</time>
      </trkpt>
      <trkpt lat="43.84276" lon="7.00707">
        <ele>781.13</ele>
        <time>2017-10-29T13:50:17Z</time>
      </trkpt>
      <trkpt lat="43.84283" lon="7.00732">
        <ele>778.39</ele>
        <time>2017-10-29T13:50:22Z</time>
      </trkpt>
      <trkpt lat="43.84288" lon="7.00757">
        <ele>776.13</ele>
        <time>2017-10-29T13:50:27Z</time>
      </trkpt>
      <trkpt lat="43.84287" lon="7.00785">
        <ele>774.47</ele>
        <time>2017-10-29T13:50:33Z</time>
      </trkpt>
      <trkpt lat="43.84279" lon="7.0081">
        <ele>771.28</ele>
        <time>2017-10-29T13:50:39Z</time>
      </trkpt>
      <trkpt lat="43.84273" lon="7.00837">
        <ele>765.82</ele>
        <time>2017-10-29T13:50:44Z</time>
      </trkpt>
      <trkpt lat="43.84264" lon="7.00862">
        <ele>764.14</ele>
        <time>2017-10-29T13:50:53Z</time>
      </trkpt>
      <trkpt lat="43.84248" lon="7.00875">
        <ele>761.79</ele>
        <time>2017-10-29T13:51:41Z</time>
      </trkpt>
      <trkpt lat="43.84236" lon="7.00897">
        <ele>760.81</ele>
        <time>2017-10-29T13:51:48Z</time>
      </trkpt>
      <trkpt lat="43.84229" lon="7.00922">
        <ele>759.68</ele>
        <time>2017-10-29T13:51:54Z</time>
      </trkpt>
      <trkpt lat="43.84229" lon="7.00952">
        <ele>758.18</ele>
        <time>2017-10-29T13:52:02Z</time>
      </trkpt>
      <trkpt lat="43.84219" lon="7.00974">
        <ele>756.61</ele>
        <time>2017-10-29T13:52:11Z</time>
      </trkpt>
      <trkpt lat="43.84223" lon="7.00999">
        <ele>754.49</ele>
        <time>2017-10-29T13:52:39Z</time>
      </trkpt>
      <trkpt lat="43.84217" lon="7.01025">
        <ele>754.36</ele>
        <time>2017-10-29T13:52:47Z</time>
      </trkpt>
      <trkpt lat="43.8421" lon="7.0105">
        <ele>753.46</ele>
        <time>2017-10-29T13:52:55Z</time>
      </trkpt>
      <trkpt lat="43.84211" lon="7.01076">
        <ele>752.85</ele>
        <time>2017-10-29T13:53:04Z</time>
      </trkpt>
      <trkpt lat="43.84214" lon="7.01102">
        <ele>752.53</ele>
        <time>2017-10-29T13:53:15Z</time>
      </trkpt>
      <trkpt lat="43.84219" lon="7.01128">
        <ele>752.42</ele>
        <time>2017-10-29T13:53:25Z</time>
      </trkpt>
      <trkpt lat="43.84226" lon="7.01153">
        <ele>752.11</ele>
        <time>2017-10-29T13:53:35Z</time>
      </trkpt>
      <trkpt lat="43.84231" lon="7.01178">
        <ele>752.13</ele>
        <time>2017-10-29T13:53:42Z</time>
      </trkpt>
      <trkpt lat="43.84245" lon="7.01194">
        <ele>751.83</ele>
        <time>2017-10-29T13:53:48Z</time>
      </trkpt>
      <trkpt lat="43.84251" lon="7.01221">
        <ele>750.92</ele>
        <time>2017-10-29T13:53:57Z</time>
      </trkpt>
      <trkpt lat="43.8426" lon="7.01244">
        <ele>750.22</ele>
        <time>2017-10-29T13:54:07Z</time>
      </trkpt>
      <trkpt lat="43.84269" lon="7.01267">
        <ele>749.1</ele>
        <time>2017-10-29T13:54:15Z</time>
      </trkpt>
      <trkpt lat="43.84271" lon="7.01296">
        <ele>747.62</ele>
        <time>2017-10-29T13:54:23Z</time>
      </trkpt>
      <trkpt lat="43.84279" lon="7.0132">
        <ele>746.02</ele>
        <time>2017-10-29T13:54:32Z</time>
      </trkpt>
      <trkpt lat="43.84293" lon="7.01341">
        <ele>744.14</ele>
        <time>2017-10-29T13:54:42Z</time>
      </trkpt>
      <trkpt lat="43.84303" lon="7.01363">
        <ele>740.72</ele>
        <time>2017-10-29T13:54:54Z</time>
      </trkpt>
      <trkpt lat="43.84315" lon="7.01382">
        <ele>734.62</ele>
        <time>2017-10-29T13:55:29Z</time>
      </trkpt>
      <trkpt lat="43.84326" lon="7.01403">
        <ele>731.79</ele>
        <time>2017-10-29T13:55:40Z</time>
      </trkpt>
      <trkpt lat="43.84335" lon="7.01425">
        <ele>729.12</ele>
        <time>2017-10-29T13:55:50Z</time>
      </trkpt>
      <trkpt lat="43.84344" lon="7.01447">
        <ele>718.6</ele>
        <time>2017-10-29T13:56:55Z</time>
      </trkpt>
      <trkpt lat="43.84346" lon="7.01473">
        <ele>717.19</ele>
        <time>2017-10-29T13:57:03Z</time>
      </trkpt>
      <trkpt lat="43.84361" lon="7.01456">
        <ele>715.07</ele>
        <time>2017-10-29T13:57:11Z</time>
      </trkpt>
      <trkpt lat="43.84367" lon="7.0148">
        <ele>702.25</ele>
        <time>2017-10-29T13:58:08Z</time>
      </trkpt>
      <trkpt lat="43.84373" lon="7.01504">
        <ele>695.83</ele>
        <time>2017-10-29T13:58:41Z</time>
      </trkpt>
      <trkpt lat="43.84375" lon="7.01529">
        <ele>692.34</ele>
        <time>2017-10-29T13:59:19Z</time>
      </trkpt>
      <trkpt lat="43.84378" lon="7.01555">
        <ele>689.81</ele>
        <time>2017-10-29T13:59:30Z</time>
      </trkpt>
      <trkpt lat="43.84384" lon="7.0153">
        <ele>683.16</ele>
        <time>2017-10-29T14:00:06Z</time>
      </trkpt>
      <trkpt lat="43.84395" lon="7.01507">
        <ele>678.27</ele>
        <time>2017-10-29T14:01:04Z</time>
      </trkpt>
      <trkpt lat="43.84404" lon="7.01483">
        <ele>677.55</ele>
        <time>2017-10-29T14:01:12Z</time>
      </trkpt>
      <trkpt lat="43.84408" lon="7.01459">
        <ele>676.16</ele>
        <time>2017-10-29T14:01:21Z</time>
      </trkpt>
      <trkpt lat="43.84414" lon="7.01483">
        <ele>670.63</ele>
        <time>2017-10-29T14:01:40Z</time>
      </trkpt>
      <trkpt lat="43.8442" lon="7.0151">
        <ele>667.06</ele>
        <time>2017-10-29T14:01:51Z</time>
      </trkpt>
      <trkpt lat="43.84431" lon="7.01489">
        <ele>660.34</ele>
        <time>2017-10-29T14:02:10Z</time>
      </trkpt>
      <trkpt lat="43.84432" lon="7.01516">
        <ele>657.47</ele>
        <time>2017-10-29T14:02:18Z</time>
      </trkpt>
      <trkpt lat="43.84423" lon="7.0154">
        <ele>654.13</ele>
        <time>2017-10-29T14:02:26Z</time>
      </trkpt>
      <trkpt lat="43.84423" lon="7.01568">
        <ele>650.94</ele>
        <time>2017-10-29T14:02:35Z</time>
      </trkpt>
      <trkpt lat="43.84426" lon="7.01596">
        <ele>648.67</ele>
        <time>2017-10-29T14:02:41Z</time>
      </trkpt>
      <trkpt lat="43.84422" lon="7.01624">
        <ele>646.02</ele>
        <time>2017-10-29T14:02:48Z</time>
      </trkpt>
      <trkpt lat="43.84418" lon="7.01648">
        <ele>636.09</ele>
        <time>2017-10-29T14:03:59Z</time>
      </trkpt>
      <trkpt lat="43.84407" lon="7.01668">
        <ele>634.04</ele>
        <time>2017-10-29T14:05:17Z</time>
      </trkpt>
      <trkpt lat="43.84428" lon="7.0167">
        <ele>632.12</ele>
        <time>2017-10-29T14:05:30Z</time>
      </trkpt>
      <trkpt lat="43.84444" lon="7.01659">
        <ele>628.14</ele>
        <time>2017-10-29T14:05:52Z</time>
      </trkpt>
      <trkpt lat="43.84442" lon="7.01685">
        <ele>622.25</ele>
        <time>2017-10-29T14:06:12Z</time>
      </trkpt>
      <trkpt lat="43.84437" lon="7.01711">
        <ele>617.92</ele>
        <time>2017-10-29T14:06:26Z</time>
      </trkpt>
      <trkpt lat="43.84429" lon="7.01735">
        <ele>615.03</ele>
        <time>2017-10-29T14:06:36Z</time>
      </trkpt>
      <trkpt lat="43.84422" lon="7.0176">
        <ele>604.08</ele>
        <time>2017-10-29T14:08:08Z</time>
      </trkpt>
      <trkpt lat="43.84404" lon="7.01773">
        <ele>602.66</ele>
        <time>2017-10-29T14:08:17Z</time>
      </trkpt>
      <trkpt lat="43.84387" lon="7.01781">
        <ele>595.94</ele>
        <time>2017-10-29T14:08:45Z</time>
      </trkpt>
      <trkpt lat="43.84374" lon="7.018">
        <ele>589.04</ele>
        <time>2017-10-29T14:09:16Z</time>
      </trkpt>
      <trkpt lat="43.84355" lon="7.01808">
        <ele>586.7</ele>
        <time>2017-10-29T14:09:27Z</time>
      </trkpt>
      <trkpt lat="43.84337" lon="7.0182">
        <ele>584.76</ele>
        <time>2017-10-29T14:09:33Z</time>
      </trkpt>
      <trkpt lat="43.84325" lon="7.01839">
        <ele>582.04</ele>
        <time>2017-10-29T14:09:41Z</time>
      </trkpt>
      <trkpt lat="43.84316" lon="7.01861">
        <ele>573.34</ele>
        <time>2017-10-29T14:10:32Z</time>
      </trkpt>
      <trkpt lat="43.84322" lon="7.01885">
        <ele>568.98</ele>
        <time>2017-10-29T14:10:57Z</time>
      </trkpt>
      <trkpt lat="43.84323" lon="7.0191">
        <ele>561.7</ele>
        <time>2017-10-29T14:11:49Z</time>
      </trkpt>
      <trkpt lat="43.84314" lon="7.01931">
        <ele>553.53</ele>
        <time>2017-10-29T14:15:13Z</time>
      </trkpt>
      <trkpt lat="43.84314" lon="7.01957">
        <ele>551.89</ele>
        <time>2017-10-29T14:15:42Z</time>
      </trkpt>
      <trkpt lat="43.84316" lon="7.01982">
        <ele>547.95</ele>
        <time>2017-10-29T14:16:09Z</time>
      </trkpt>
      <trkpt lat="43.84314" lon="7.02007">
        <ele>542.77</ele>
        <time>2017-10-29T14:16:37Z</time>
      </trkpt>
      <trkpt lat="43.84309" lon="7.02032">
        <ele>541.58</ele>
        <time>2017-10-29T14:16:43Z</time>
      </trkpt>
      <trkpt lat="43.84305" lon="7.0206">
        <ele>540.04</ele>
        <time>2017-10-29T14:16:50Z</time>
      </trkpt>
      <trkpt lat="43.84305" lon="7.02087">
        <ele>538.65</ele>
        <time>2017-10-29T14:16:56Z</time>
      </trkpt>
      <trkpt lat="43.84318" lon="7.02106">
        <ele>537.29</ele>
        <time>2017-10-29T14:17:03Z</time>
      </trkpt>
      <trkpt lat="43.84331" lon="7.02124">
        <ele>535.7</ele>
        <time>2017-10-29T14:17:10Z</time>
      </trkpt>
      <trkpt lat="43.84335" lon="7.02149">
        <ele>532.97</ele>
        <time>2017-10-29T14:17:18Z</time>
      </trkpt>
      <trkpt lat="43.84339" lon="7.02174">
        <ele>529.96</ele>
        <time>2017-10-29T14:17:27Z</time>
      </trkpt>
      <trkpt lat="43.84342" lon="7.02201">
        <ele>526.77</ele>
        <time>2017-10-29T14:17:37Z</time>
      </trkpt>
      <trkpt lat="43.84342" lon="7.02228">
        <ele>521.49</ele>
        <time>2017-10-29T14:17:52Z</time>
      </trkpt>
      <trkpt lat="43.84335" lon="7.02253">
        <ele>519.13</ele>
        <time>2017-10-29T14:17:59Z</time>
      </trkpt>
      <trkpt lat="43.84337" lon="7.0228">
        <ele>517.08</ele>
        <time>2017-10-29T14:18:05Z</time>
      </trkpt>
      <trkpt lat="43.84345" lon="7.02307">
        <ele>514.89</ele>
        <time>2017-10-29T14:18:11Z</time>
      </trkpt>
      <trkpt lat="43.84347" lon="7.02334">
        <ele>511.81</ele>
        <time>2017-10-29T14:18:20Z</time>
      </trkpt>
      <trkpt lat="43.84348" lon="7.02359">
        <ele>507.99</ele>
        <time>2017-10-29T14:18:40Z</time>
      </trkpt>
      <trkpt lat="43.84338" lon="7.02382">
        <ele>502.05</ele>
        <time>2017-10-29T14:19:19Z</time>
      </trkpt>
      <trkpt lat="43.84341" lon="7.02408">
        <ele>497.64</ele>
        <time>2017-10-29T14:19:39Z</time>
      </trkpt>
      <trkpt lat="43.84344" lon="7.02434">
        <ele>494.85</ele>
        <time>2017-10-29T14:19:49Z</time>
      </trkpt>
      <trkpt lat="43.84346" lon="7.0246">
        <ele>492.77</ele>
        <time>2017-10-29T14:19:57Z</time>
      </trkpt>
      <trkpt lat="43.84336" lon="7.02482">
        <ele>491.54</ele>
        <time>2017-10-29T14:20:02Z</time>
      </trkpt>
      <trkpt lat="43.84324" lon="7.02501">
        <ele>485.46</ele>
        <time>2017-10-29T14:20:07Z</time>
      </trkpt>
      <trkpt lat="43.84311" lon="7.0252">
        <ele>480.52</ele>
        <time>2017-10-29T14:20:12Z</time>
      </trkpt>
      <trkpt lat="43.84316" lon="7.02546">
        <ele>479.07</ele>
        <time>2017-10-29T14:20:20Z</time>
      </trkpt>
      <trkpt lat="43.84335" lon="7.02545">
        <ele>476.47</ele>
        <time>2017-10-29T14:20:39Z</time>
      </trkpt>
      <trkpt lat="43.84355" lon="7.02551">
        <ele>475.27</ele>
        <time>2017-10-29T14:20:48Z</time>
      </trkpt>
      <trkpt lat="43.84376" lon="7.02549">
        <ele>473.3</ele>
        <time>2017-10-29T14:20:56Z</time>
      </trkpt>
      <trkpt lat="43.84392" lon="7.02562">
        <ele>471.05</ele>
        <time>2017-10-29T14:21:04Z</time>
      </trkpt>
      <trkpt lat="43.84381" lon="7.02584">
        <ele>468.4</ele>
        <time>2017-10-29T14:21:12Z</time>
      </trkpt>
      <trkpt lat="43.84397" lon="7.02596">
        <ele>464.93</ele>
        <time>2017-10-29T14:21:21Z</time>
      </trkpt>
      <trkpt lat="43.84413" lon="7.02611">
        <ele>462.19</ele>
        <time>2017-10-29T14:21:28Z</time>
      </trkpt>
      <trkpt lat="43.84416" lon="7.02635">
        <ele>458.51</ele>
        <time>2017-10-29T14:21:37Z</time>
      </trkpt>
      <trkpt lat="43.84422" lon="7.0266">
        <ele>455.34</ele>
        <time>2017-10-29T14:21:44Z</time>
      </trkpt>
      <trkpt lat="43.84403" lon="7.02659">
        <ele>448.99</ele>
        <time>2017-10-29T14:24:07Z</time>
      </trkpt>
      <trkpt lat="43.8439" lon="7.02678">
        <ele>447.95</ele>
        <time>2017-10-29T14:24:36Z</time>
      </trkpt>
      <trkpt lat="43.84385" lon="7.02704">
        <ele>447.86</ele>
        <time>2017-10-29T14:24:48Z</time>
      </trkpt>
      <trkpt lat="43.84395" lon="7.02726">
        <ele>447.79</ele>
        <time>2017-10-29T14:24:58Z</time>
      </trkpt>
      <trkpt lat="43.84395" lon="7.02752">
        <ele>447.52</ele>
        <time>2017-10-29T14:25:08Z</time>
      </trkpt>
      <trkpt lat="43.84398" lon="7.02777">
        <ele>447.01</ele>
        <time>2017-10-29T14:25:19Z</time>
      </trkpt>
      <trkpt lat="43.84401" lon="7.02802">
        <ele>447.06</ele>
        <time>2017-10-29T14:25:30Z</time>
      </trkpt>
      <trkpt lat="43.84403" lon="7.0283">
        <ele>447.05</ele>
        <time>2017-10-29T14:25:40Z</time>
      </trkpt>
      <trkpt lat="43.84398" lon="7.02856">
        <ele>446.95</ele>
        <time>2017-10-29T14:25:52Z</time>
      </trkpt>
      <trkpt lat="43.84389" lon="7.02878">
        <ele>446.67</ele>
        <time>2017-10-29T14:26:01Z</time>
      </trkpt>
      <trkpt lat="43.84373" lon="7.02896">
        <ele>447.23</ele>
        <time>2017-10-29T14:26:12Z</time>
      </trkpt>
      <trkpt lat="43.84357" lon="7.02907">
        <ele>448.89</ele>
        <time>2017-10-29T14:26:22Z</time>
      </trkpt>
      <trkpt lat="43.84342" lon="7.02925">
        <ele>450.22</ele>
        <time>2017-10-29T14:26:32Z</time>
      </trkpt>
      <trkpt lat="43.84341" lon="7.02953">
        <ele>451.13</ele>
        <time>2017-10-29T14:26:43Z</time>
      </trkpt>
      <trkpt lat="43.84349" lon="7.0298">
        <ele>451.9</ele>
        <time>2017-10-29T14:26:52Z</time>
      </trkpt>
      <trkpt lat="43.84343" lon="7.03007">
        <ele>452.59</ele>
        <time>2017-10-29T14:27:01Z</time>
      </trkpt>
      <trkpt lat="43.8433" lon="7.03026">
        <ele>453.32</ele>
        <time>2017-10-29T14:27:10Z</time>
      </trkpt>
      <trkpt lat="43.8432" lon="7.03047">
        <ele>454.72</ele>
        <time>2017-10-29T14:27:20Z</time>
      </trkpt>
      <trkpt lat="43.84325" lon="7.03074">
        <ele>456.3</ele>
        <time>2017-10-29T14:27:31Z</time>
      </trkpt>
      <trkpt lat="43.84334" lon="7.031">
        <ele>457.59</ele>
        <time>2017-10-29T14:27:41Z</time>
      </trkpt>
      <trkpt lat="43.84337" lon="7.03124">
        <ele>459.29</ele>
        <time>2017-10-29T14:27:52Z</time>
      </trkpt>
      <trkpt lat="43.84337" lon="7.0315">
        <ele>460.43</ele>
        <time>2017-10-29T14:28:02Z</time>
      </trkpt>
      <trkpt lat="43.84332" lon="7.03174">
        <ele>461.27</ele>
        <time>2017-10-29T14:28:12Z</time>
      </trkpt>
      <trkpt lat="43.84328" lon="7.03199">
        <ele>462.23</ele>
        <time>2017-10-29T14:28:21Z</time>
      </trkpt>
      <trkpt lat="43.84335" lon="7.03225">
        <ele>463.3</ele>
        <time>2017-10-29T14:28:31Z</time>
      </trkpt>
      <trkpt lat="43.84336" lon="7.0325">
        <ele>464.26</ele>
        <time>2017-10-29T14:28:39Z</time>
      </trkpt>
      <trkpt lat="43.84328" lon="7.03272">
        <ele>465.21</ele>
        <time>2017-10-29T14:28:48Z</time>
      </trkpt>
      <trkpt lat="43.84315" lon="7.03292">
        <ele>466.14</ele>
        <time>2017-10-29T14:28:57Z</time>
      </trkpt>
      <trkpt lat="43.84306" lon="7.03314">
        <ele>467.18</ele>
        <time>2017-10-29T14:29:08Z</time>
      </trkpt>
      <trkpt lat="43.843" lon="7.03338">
        <ele>467.83</ele>
        <time>2017-10-29T14:29:17Z</time>
      </trkpt>
      <trkpt lat="43.84294" lon="7.03363">
        <ele>468.67</ele>
        <time>2017-10-29T14:29:27Z</time>
      </trkpt>
      <trkpt lat="43.84289" lon="7.03389">
        <ele>469.07</ele>
        <time>2017-10-29T14:29:37Z</time>
      </trkpt>
      <trkpt lat="43.84282" lon="7.03412">
        <ele>469.59</ele>
        <time>2017-10-29T14:29:46Z</time>
      </trkpt>
      <trkpt lat="43.84272" lon="7.03435">
        <ele>470.86</ele>
        <time>2017-10-29T14:29:55Z</time>
      </trkpt>
      <trkpt lat="43.84262" lon="7.03457">
        <ele>472.88</ele>
        <time>2017-10-29T14:30:05Z</time>
      </trkpt>
      <trkpt lat="43.84255" lon="7.03482">
        <ele>474.07</ele>
        <time>2017-10-29T14:30:14Z</time>
      </trkpt>
      <trkpt lat="43.8425" lon="7.03507">
        <ele>474.69</ele>
        <time>2017-10-29T14:30:22Z</time>
      </trkpt>
      <trkpt lat="43.8425" lon="7.03532">
        <ele>476.38</ele>
        <time>2017-10-29T14:30:30Z</time>
      </trkpt>
      <trkpt lat="43.84254" lon="7.03558">
        <ele>478.41</ele>
        <time>2017-10-29T14:30:39Z</time>
      </trkpt>
      <trkpt lat="43.84257" lon="7.03585">
        <ele>480.31</ele>
        <time>2017-10-29T14:30:48Z</time>
      </trkpt>
      <trkpt lat="43.84252" lon="7.03612">
        <ele>481.22</ele>
        <time>2017-10-29T14:30:58Z</time>
      </trkpt>
      <trkpt lat="43.84248" lon="7.03637">
        <ele>482.22</ele>
        <time>2017-10-29T14:31:08Z</time>
      </trkpt>
      <trkpt lat="43.84241" lon="7.03662">
        <ele>483.48</ele>
        <time>2017-10-29T14:31:17Z</time>
      </trkpt>
      <trkpt lat="43.8424" lon="7.03688">
        <ele>484.89</ele>
        <time>2017-10-29T14:31:26Z</time>
      </trkpt>
      <trkpt lat="43.8424" lon="7.03715">
        <ele>486.76</ele>
        <time>2017-10-29T14:31:36Z</time>
      </trkpt>
      <trkpt lat="43.84241" lon="7.03743">
        <ele>488.04</ele>
        <time>2017-10-29T14:31:45Z</time>
      </trkpt>
      <trkpt lat="43.84246" lon="7.03769">
        <ele>489.69</ele>
        <time>2017-10-29T14:31:54Z</time>
      </trkpt>
      <trkpt lat="43.84245" lon="7.03796">
        <ele>491.09</ele>
        <time>2017-10-29T14:32:03Z</time>
      </trkpt>
      <trkpt lat="43.84246" lon="7.03822">
        <ele>492.46</ele>
        <time>2017-10-29T14:32:12Z</time>
      </trkpt>
      <trkpt lat="43.84255" lon="7.03844">
        <ele>493.98</ele>
        <time>2017-10-29T14:32:22Z</time>
      </trkpt>
      <trkpt lat="43.84267" lon="7.03866">
        <ele>495.16</ele>
        <time>2017-10-29T14:32:30Z</time>
      </trkpt>
      <trkpt lat="43.84276" lon="7.03889">
        <ele>496.5</ele>
        <time>2017-10-29T14:32:38Z</time>
      </trkpt>
      <trkpt lat="43.84279" lon="7.03915">
        <ele>497.67</ele>
        <time>2017-10-29T14:32:45Z</time>
      </trkpt>
      <trkpt lat="43.8429" lon="7.03935">
        <ele>498.93</ele>
        <time>2017-10-29T14:32:55Z</time>
      </trkpt>
      <trkpt lat="43.84308" lon="7.03925">
        <ele>499.51</ele>
        <time>2017-10-29T14:33:02Z</time>
      </trkpt>
      <trkpt lat="43.8432" lon="7.03904">
        <ele>500.53</ele>
        <time>2017-10-29T14:33:08Z</time>
      </trkpt>
      <trkpt lat="43.84331" lon="7.03882">
        <ele>501.91</ele>
        <time>2017-10-29T14:33:16Z</time>
      </trkpt>
      <trkpt lat="43.84342" lon="7.03862">
        <ele>503.57</ele>
        <time>2017-10-29T14:33:24Z</time>
      </trkpt>
      <trkpt lat="43.84354" lon="7.03841">
        <ele>506.2</ele>
        <time>2017-10-29T14:33:32Z</time>
      </trkpt>
      <trkpt lat="43.84363" lon="7.03816">
        <ele>508.55</ele>
        <time>2017-10-29T14:33:41Z</time>
      </trkpt>
      <trkpt lat="43.84368" lon="7.03791">
        <ele>509.95</ele>
        <time>2017-10-29T14:33:51Z</time>
      </trkpt>
      <trkpt lat="43.84378" lon="7.03768">
        <ele>510.96</ele>
        <time>2017-10-29T14:34:00Z</time>
      </trkpt>
      <trkpt lat="43.84391" lon="7.03749">
        <ele>512.02</ele>
        <time>2017-10-29T14:34:10Z</time>
      </trkpt>
      <trkpt lat="43.84402" lon="7.03728">
        <ele>512.78</ele>
        <time>2017-10-29T14:34:18Z</time>
      </trkpt>
      <trkpt lat="43.8441" lon="7.03705">
        <ele>513.51</ele>
        <time>2017-10-29T14:34:26Z</time>
      </trkpt>
      <trkpt lat="43.84426" lon="7.03688">
        <ele>514.48</ele>
        <time>2017-10-29T14:34:38Z</time>
      </trkpt>
      <trkpt lat="43.8443" lon="7.03664">
        <ele>515.01</ele>
        <time>2017-10-29T14:34:47Z</time>
      </trkpt>
      <trkpt lat="43.84436" lon="7.0364">
        <ele>515.95</ele>
        <time>2017-10-29T14:34:58Z</time>
      </trkpt>
      <trkpt lat="43.84449" lon="7.0362">
        <ele>516.61</ele>
        <time>2017-10-29T14:35:07Z</time>
      </trkpt>
      <trkpt lat="43.84464" lon="7.03603">
        <ele>517.13</ele>
        <time>2017-10-29T14:35:15Z</time>
      </trkpt>
      <trkpt lat="43.84479" lon="7.03583">
        <ele>518.84</ele>
        <time>2017-10-29T14:35:25Z</time>
      </trkpt>
      <trkpt lat="43.84488" lon="7.0356">
        <ele>520.59</ele>
        <time>2017-10-29T14:35:33Z</time>
      </trkpt>
      <trkpt lat="43.845" lon="7.0354">
        <ele>522.45</ele>
        <time>2017-10-29T14:35:42Z</time>
      </trkpt>
      <trkpt lat="43.84516" lon="7.03525">
        <ele>523.93</ele>
        <time>2017-10-29T14:35:52Z</time>
      </trkpt>
      <trkpt lat="43.84531" lon="7.0351">
        <ele>524.81</ele>
        <time>2017-10-29T14:36:01Z</time>
      </trkpt>
      <trkpt lat="43.84543" lon="7.03488">
        <ele>525.37</ele>
        <time>2017-10-29T14:36:09Z</time>
      </trkpt>
      <trkpt lat="43.84559" lon="7.03473">
        <ele>526.13</ele>
        <time>2017-10-29T14:36:18Z</time>
      </trkpt>
      <trkpt lat="43.84579" lon="7.03464">
        <ele>526.82</ele>
        <time>2017-10-29T14:36:27Z</time>
      </trkpt>
      <trkpt lat="43.84594" lon="7.03452">
        <ele>527.64</ele>
        <time>2017-10-29T14:36:35Z</time>
      </trkpt>
      <trkpt lat="43.84606" lon="7.03432">
        <ele>528.71</ele>
        <time>2017-10-29T14:36:43Z</time>
      </trkpt>
      <trkpt lat="43.84617" lon="7.03412">
        <ele>529.85</ele>
        <time>2017-10-29T14:36:51Z</time>
      </trkpt>
      <trkpt lat="43.8463" lon="7.03394">
        <ele>531.23</ele>
        <time>2017-10-29T14:37:00Z</time>
      </trkpt>
      <trkpt lat="43.84645" lon="7.03375">
        <ele>532.6</ele>
        <time>2017-10-29T14:37:09Z</time>
      </trkpt>
      <trkpt lat="43.8466" lon="7.03359">
        <ele>533.41</ele>
        <time>2017-10-29T14:37:17Z</time>
      </trkpt>
      <trkpt lat="43.84677" lon="7.03346">
        <ele>534.3</ele>
        <time>2017-10-29T14:37:25Z</time>
      </trkpt>
      <trkpt lat="43.84695" lon="7.03334">
        <ele>535.26</ele>
        <time>2017-10-29T14:37:34Z</time>
      </trkpt>
      <trkpt lat="43.8471" lon="7.03319">
        <ele>536.19</ele>
        <time>2017-10-29T14:37:42Z</time>
      </trkpt>
      <trkpt lat="43.84699" lon="7.03341">
        <ele>537.51</ele>
        <time>2017-10-29T14:37:54Z</time>
      </trkpt>
      <trkpt lat="43.84683" lon="7.03354">
        <ele>538.63</ele>
        <time>2017-10-29T14:38:01Z</time>
      </trkpt>
      <trkpt lat="43.84668" lon="7.0337">
        <ele>540.34</ele>
        <time>2017-10-29T14:38:10Z</time>
      </trkpt>
      <trkpt lat="43.84654" lon="7.03388">
        <ele>541.45</ele>
        <time>2017-10-29T14:38:19Z</time>
      </trkpt>
      <trkpt lat="43.84645" lon="7.03413">
        <ele>542.16</ele>
        <time>2017-10-29T14:38:28Z</time>
      </trkpt>
      <trkpt lat="43.84634" lon="7.03432">
        <ele>542.59</ele>
        <time>2017-10-29T14:38:36Z</time>
      </trkpt>
      <trkpt lat="43.84621" lon="7.03454">
        <ele>543.7</ele>
        <time>2017-10-29T14:38:45Z</time>
      </trkpt>
      <trkpt lat="43.8461" lon="7.03477">
        <ele>544.54</ele>
        <time>2017-10-29T14:38:54Z</time>
      </trkpt>
      <trkpt lat="43.84596" lon="7.03493">
        <ele>545.31</ele>
        <time>2017-10-29T14:39:02Z</time>
      </trkpt>
      <trkpt lat="43.84582" lon="7.0351">
        <ele>546.59</ele>
        <time>2017-10-29T14:39:10Z</time>
      </trkpt>
      <trkpt lat="43.8457" lon="7.03532">
        <ele>548.26</ele>
        <time>2017-10-29T14:39:19Z</time>
      </trkpt>
      <trkpt lat="43.84559" lon="7.03555">
        <ele>549.7</ele>
        <time>2017-10-29T14:39:29Z</time>
      </trkpt>
      <trkpt lat="43.84547" lon="7.03576">
        <ele>550.95</ele>
        <time>2017-10-29T14:39:38Z</time>
      </trkpt>
      <trkpt lat="43.84539" lon="7.03599">
        <ele>552.08</ele>
        <time>2017-10-29T14:39:46Z</time>
      </trkpt>
      <trkpt lat="43.84531" lon="7.03622">
        <ele>552.71</ele>
        <time>2017-10-29T14:39:54Z</time>
      </trkpt>
      <trkpt lat="43.84526" lon="7.03647">
        <ele>553.61</ele>
        <time>2017-10-29T14:40:02Z</time>
      </trkpt>
      <trkpt lat="43.84518" lon="7.0367">
        <ele>554.67</ele>
        <time>2017-10-29T14:40:11Z</time>
      </trkpt>
      <trkpt lat="43.84507" lon="7.03694">
        <ele>555.52</ele>
        <time>2017-10-29T14:40:21Z</time>
      </trkpt>
      <trkpt lat="43.84497" lon="7.03717">
        <ele>555.95</ele>
        <time>2017-10-29T14:40:29Z</time>
      </trkpt>
      <trkpt lat="43.84488" lon="7.03738">
        <ele>556.94</ele>
        <time>2017-10-29T14:40:38Z</time>
      </trkpt>
      <trkpt lat="43.84477" lon="7.03761">
        <ele>557.66</ele>
        <time>2017-10-29T14:40:47Z</time>
      </trkpt>
      <trkpt lat="43.8447" lon="7.03784">
        <ele>558.58</ele>
        <time>2017-10-29T14:40:54Z</time>
      </trkpt>
      <trkpt lat="43.84467" lon="7.0381">
        <ele>559.52</ele>
        <time>2017-10-29T14:41:03Z</time>
      </trkpt>
      <trkpt lat="43.84468" lon="7.03836">
        <ele>560.95</ele>
        <time>2017-10-29T14:41:11Z</time>
      </trkpt>
      <trkpt lat="43.84472" lon="7.03863">
        <ele>563.21</ele>
        <time>2017-10-29T14:41:20Z</time>
      </trkpt>
      <trkpt lat="43.84473" lon="7.03889">
        <ele>564.57</ele>
        <time>2017-10-29T14:41:28Z</time>
      </trkpt>
      <trkpt lat="43.84471" lon="7.03914">
        <ele>565.44</ele>
        <time>2017-10-29T14:41:37Z</time>
      </trkpt>
      <trkpt lat="43.84465" lon="7.03939">
        <ele>566.07</ele>
        <time>2017-10-29T14:41:45Z</time>
      </trkpt>
      <trkpt lat="43.84462" lon="7.03964">
        <ele>567.13</ele>
        <time>2017-10-29T14:41:54Z</time>
      </trkpt>
      <trkpt lat="43.84456" lon="7.03989">
        <ele>568.15</ele>
        <time>2017-10-29T14:42:02Z</time>
      </trkpt>
      <trkpt lat="43.84452" lon="7.04015">
        <ele>569.53</ele>
        <time>2017-10-29T14:42:10Z</time>
      </trkpt>
      <trkpt lat="43.84444" lon="7.04039">
        <ele>570.53</ele>
        <time>2017-10-29T14:42:19Z</time>
      </trkpt>
      <trkpt lat="43.84433" lon="7.0406">
        <ele>570.74</ele>
        <time>2017-10-29T14:42:28Z</time>
      </trkpt>
      <trkpt lat="43.84419" lon="7.04081">
        <ele>571.78</ele>
        <time>2017-10-29T14:42:36Z</time>
      </trkpt>
      <trkpt lat="43.84409" lon="7.04102">
        <ele>573.07</ele>
        <time>2017-10-29T14:42:44Z</time>
      </trkpt>
      <trkpt lat="43.84402" lon="7.04126">
        <ele>573.74</ele>
        <time>2017-10-29T14:42:54Z</time>
      </trkpt>
      <trkpt lat="43.84405" lon="7.04152">
        <ele>575.36</ele>
        <time>2017-10-29T14:43:03Z</time>
      </trkpt>
      <trkpt lat="43.84411" lon="7.04177">
        <ele>576.95</ele>
        <time>2017-10-29T14:43:11Z</time>
      </trkpt>
      <trkpt lat="43.84415" lon="7.04201">
        <ele>578.71</ele>
        <time>2017-10-29T14:43:19Z</time>
      </trkpt>
      <trkpt lat="43.84417" lon="7.04227">
        <ele>580.54</ele>
        <time>2017-10-29T14:43:27Z</time>
      </trkpt>
      <trkpt lat="43.84412" lon="7.04252">
        <ele>581.95</ele>
        <time>2017-10-29T14:43:36Z</time>
      </trkpt>
      <trkpt lat="43.84398" lon="7.04269">
        <ele>582.44</ele>
        <time>2017-10-29T14:43:44Z</time>
      </trkpt>
      <trkpt lat="43.84379" lon="7.04277">
        <ele>583.76</ele>
        <time>2017-10-29T14:43:51Z</time>
      </trkpt>
      <trkpt lat="43.84364" lon="7.04291">
        <ele>585.63</ele>
        <time>2017-10-29T14:43:59Z</time>
      </trkpt>
      <trkpt lat="43.84359" lon="7.04318">
        <ele>586.87</ele>
        <time>2017-10-29T14:44:08Z</time>
      </trkpt>
      <trkpt lat="43.84358" lon="7.04343">
        <ele>588.01</ele>
        <time>2017-10-29T14:44:16Z</time>
      </trkpt>
      <trkpt lat="43.84354" lon="7.04369">
        <ele>589.06</ele>
        <time>2017-10-29T14:44:26Z</time>
      </trkpt>
      <trkpt lat="43.84344" lon="7.04391">
        <ele>589.72</ele>
        <time>2017-10-29T14:44:34Z</time>
      </trkpt>
      <trkpt lat="43.84337" lon="7.04419">
        <ele>589.83</ele>
        <time>2017-10-29T14:44:45Z</time>
      </trkpt>
      <trkpt lat="43.84333" lon="7.04446">
        <ele>590.43</ele>
        <time>2017-10-29T14:44:54Z</time>
      </trkpt>
      <trkpt lat="43.84328" lon="7.04472">
        <ele>591.18</ele>
        <time>2017-10-29T14:45:02Z</time>
      </trkpt>
      <trkpt lat="43.84322" lon="7.04497">
        <ele>591.97</ele>
        <time>2017-10-29T14:45:11Z</time>
      </trkpt>
      <trkpt lat="43.84316" lon="7.04524">
        <ele>592.66</ele>
        <time>2017-10-29T14:45:20Z</time>
      </trkpt>
      <trkpt lat="43.84311" lon="7.04551">
        <ele>593.51</ele>
        <time>2017-10-29T14:45:28Z</time>
      </trkpt>
      <trkpt lat="43.8431" lon="7.04578">
        <ele>594.73</ele>
        <time>2017-10-29T14:45:37Z</time>
      </trkpt>
      <trkpt lat="43.84312" lon="7.04605">
        <ele>595.83</ele>
        <time>2017-10-29T14:45:44Z</time>
      </trkpt>
      <trkpt lat="43.843" lon="7.04624">
        <ele>596.86</ele>
        <time>2017-10-29T14:45:51Z</time>
      </trkpt>
      <trkpt lat="43.84287" lon="7.04642">
        <ele>597.61</ele>
        <time>2017-10-29T14:45:59Z</time>
      </trkpt>
      <trkpt lat="43.84278" lon="7.04665">
        <ele>598.07</ele>
        <time>2017-10-29T14:46:07Z</time>
      </trkpt>
      <trkpt lat="43.84278" lon="7.04694">
        <ele>599.4</ele>
        <time>2017-10-29T14:46:16Z</time>
      </trkpt>
      <trkpt lat="43.84279" lon="7.0472">
        <ele>600.66</ele>
        <time>2017-10-29T14:46:24Z</time>
      </trkpt>
      <trkpt lat="43.84274" lon="7.04746">
        <ele>601.47</ele>
        <time>2017-10-29T14:46:33Z</time>
      </trkpt>
      <trkpt lat="43.84266" lon="7.04768">
        <ele>602.25</ele>
        <time>2017-10-29T14:46:41Z</time>
      </trkpt>
      <trkpt lat="43.8427" lon="7.04794">
        <ele>603.52</ele>
        <time>2017-10-29T14:46:55Z</time>
      </trkpt>
      <trkpt lat="43.84278" lon="7.04817">
        <ele>605.96</ele>
        <time>2017-10-29T14:47:10Z</time>
      </trkpt>
      <trkpt lat="43.84282" lon="7.04844">
        <ele>609.2</ele>
        <time>2017-10-29T14:47:26Z</time>
      </trkpt>
    </trkseg>
  </trk>
</gpx>